• Join FlightAware (Why Join?)
  • Login
  • US Flag 
08:25PM EDT


 

Airport Tracker/Info


-or-


 

Live Flight TrackerFlight Track Log ✈ SIA21 ✈ 10-Nov-2013 ✈ KEWR - WSSS / SIN

Flight Track Log - Related Links

Times and Time Zones

All times are in EST time to prevent confusion due to time zone crossing. See the SIA21 flight status page for this flight to view local times or setup timezone preferences in your user account.

Time Position Orientation Groundspeed Altitude Reporting Facility
EST Latitude Longitude Course Direction KTS MPH feet Rate Location/Type
11:08PM 40.6647 -74.1853 78° East 182 209 800  Level FlightAware ADS-B
11:08PM 40.6539 -74.1882 192° South 195 224 1,200 2,100 Climbing FlightAware ADS-B
11:08PM 40.6406 -74.1900 186° South 194 223 1,800 1,800 Climbing FlightAware ADS-B
11:09PM 40.6188 -74.1983 196° South 184 212 2,500 1,380 Climbing FlightAware ADS-B
11:09PM 40.6058 -74.2034 197° South 191 220 2,800 1,200 Climbing FlightAware ADS-B
11:09PM 40.6018 -74.2053 200° South 190 219 2,900 1,080 Climbing FlightAware ADS-B
11:09PM 40.5944 -74.2119 214° Southwest 179 206 3,100 720 Climbing FlightAware ADS-B
11:10PM 40.5918 -74.2161 231° Southwest 178 205 3,100 540 Level FlightAware ADS-B
11:10PM 40.5898 -74.2226 248° West 174 200 3,200 840 Climbing FlightAware ADS-B
11:10PM 40.5892 -74.2302 264° West 177 204 3,300 480 Climbing FlightAware ADS-B
11:10PM 40.5897 -74.2345 279° West 179 206 3,300 720 Level FlightAware ADS-B
11:10PM 40.6010 -74.2532 309° West 181 208 3,600 960 Climbing FlightAware ADS-B
11:10PM 40.6048 -74.2562 329° Northwest 205 236 3,700 600 Climbing FlightAware ADS-B
11:11PM 40.6176 -74.2654 331° Northwest 229 264 3,800 1,500 Climbing FlightAware ADS-B
11:11PM 40.6550 -74.2910 333° Northwest 243 280 5,100 1,740 Climbing FlightAware
11:11PM 40.6750 -74.2970 347° North 249 287 5,500 840 Climbing FlightAware
11:12PM 40.7150 -74.2700 27° Northeast 267 307 5,900 360 Climbing FlightAware
11:12PM 40.7380 -74.2470 37° Northeast 271 312 5,900  Level FlightAware
11:13PM 40.7620 -74.2240 36° Northeast 273 314 5,900  Level FlightAware
11:13PM 40.7895 -74.1957 38° Northeast 266 306 5,900  Level FlightAware ADS-B
11:14PM 40.8055 -74.1800 37° Northeast 267 307 5,900 840 Level FlightAware ADS-B
11:14PM 40.8389 -74.1457 38° Northeast 277 319 6,600 1,500 Climbing FlightAware ADS-B
11:14PM 40.8549 -74.1250 44° Northeast 286 329 7,200 2,220 Climbing FlightAware ADS-B
11:15PM 40.8732 -74.1012 45° Northeast 287 330 8,000 2,220 Climbing FlightAware ADS-B
11:15PM 40.8882 -74.0819 44° Northeast 291 335 8,500 2,220 Climbing FlightAware ADS-B
11:15PM 40.9039 -74.0618 44° Northeast 293 337 9,200 2,400 Climbing FlightAware ADS-B
11:16PM 40.9246 -74.0353 44° Northeast 294 338 10,000 1,320 Climbing FlightAware ADS-B
11:17PM 40.9961 -73.9439 44° Northeast 316 364 11,100 1,380 Climbing FlightAware ADS-B
11:17PM 41.0322 -73.8971 44° Northeast 360 414 12,200 1,920 Climbing FlightAware ADS-B
11:18PM 41.0683 -73.8503 44° Northeast 368 423 13,100 1,560 Climbing FlightAware ADS-B
11:18PM 41.1107 -73.7958 44° Northeast 383 441 13,900 1,620 Climbing FlightAware ADS-B
11:19PM 41.1745 -73.7131 44° Northeast 396 456 15,400 1,740 Climbing FlightAware ADS-B (KSNC)
11:20PM 41.2126 -73.6809 32° Northeast 370 426 16,200 2,040 Climbing FlightAware ADS-B (KSNC)
11:20PM 41.2650 -73.6655 12° North 359 413 17,400 1,920 Climbing FlightAware ADS-B (KSNC)
11:21PM 41.3563 -73.6383 13° North 365 420 19,000 1,560 Climbing FlightAware ADS-B (KSNC)
11:22PM 41.4217 -73.6193 12° North 376 433 19,900 1,500 Climbing FlightAware ADS-B (KSNC)
11:22PM 41.4753 -73.6035 12° North 380 437 20,900 1,560 Climbing FlightAware ADS-B (KSNC)
11:23PM 41.5540 -73.5806 12° North 383 441 22,000 1,860 Climbing FlightAware ADS-B (KSNC)
11:24PM 41.6150 -73.5622 13° North 380 437 23,300 1,920 Climbing FlightAware ADS-B (KSNC)
11:24PM 41.6680 -73.5465 12° North 388 447 24,100 1,320 Climbing FlightAware ADS-B (KSNC)
11:25PM 41.7763 -73.5142 13° North 396 456 25,400 1,380 Climbing FlightAware ADS-B (KSNC)
11:26PM 41.8302 -73.4978 13° North 393 452 26,200 1,500 Climbing FlightAware ADS-B (KSNC)
11:26PM 41.8762 -73.4840 13° North 393 452 27,100 1,080 Climbing FlightAware ADS-B (KSNC)
11:27PM 41.9550 -73.4610 12° North 402 463 27,500 660 Climbing FlightAware
11:27PM 41.9851 -73.4516 13° North 407 468 27,700 960 Climbing FlightAware ADS-B (KSNC)
11:28PM 42.0540 -73.4310 13° North 409 471 28,400 1,080 Climbing FlightAware
11:28PM 42.0984 -73.4171 13° North 410 472 28,800 660 Climbing FlightAware ADS-B (KSNC)
11:29PM 42.1951 -73.3882 12° North 423 487 29,300 540 Climbing FlightAware ADS-B (KSNC)
11:30PM 42.2969 -73.3570 13° North 435 501 29,800 600 Climbing FlightAware ADS-B (KSNC)
11:30PM 42.3574 -73.3382 13° North 442 509 30,200 960 Climbing FlightAware ADS-B (KSNC)
11:30PM 42.3662 -73.3344 18° North 459 528 30,400 780 Climbing FlightAware ADS-B
11:31PM 42.4438 -73.2685 32° Northeast 476 548 30,800 780 Climbing FlightAware ADS-B (KSNC)
11:32PM 42.4405 -73.2720 218° Southwest 481 554 31,500 660 Climbing FlightAware ADS-B (KSNC)
11:33PM 42.6097 -73.1045 36° Northeast 487 560 31,900 660 Climbing FlightAware ADS-B
11:33PM 42.6676 -73.0485 35° Northeast 486 559 32,500 840 Climbing FlightAware ADS-B
11:34PM 42.7247 -72.9929 36° Northeast 489 563 32,800 420 Climbing FlightAware ADS-B
11:34PM 42.7842 -72.9347 36° Northeast 490 564 33,000 120 Climbing FlightAware ADS-B
11:35PM 42.8782 -72.8428 36° Northeast 490 564 33,000  Level FlightAware ADS-B
11:36PM 42.9648 -72.7574 36° Northeast 489 563 33,000  Level FlightAware ADS-B
11:37PM 43.0427 -72.6806 36° Northeast 495 570 33,000  Level FlightAware ADS-B
11:37PM 43.0811 -72.6426 36° Northeast 500 575 33,000  Level FlightAware ADS-B (KSNC)
11:38PM 43.2291 -72.4956 36° Northeast 501 577 33,000 60 Level FlightAware ADS-B
11:39PM 43.2967 -72.4281 36° Northeast 501 577 33,100  Climbing FlightAware ADS-B
11:39PM 43.3278 -72.3970 36° Northeast 502 578 33,000 -120 Descending FlightAware ADS-B
11:40PM 43.4132 -72.3116 36° Northeast 496 571 33,000  Level FlightAware ADS-B (KSNC)
11:40PM 43.4680 -72.2562 36° Northeast 495 570 33,000  Level FlightAware ADS-B (KSNC)
11:41PM 43.5330 -72.1909 36° Northeast 497 572 33,000  Level FlightAware ADS-B (KSNC)
11:41PM 43.5747 -72.1487 36° Northeast 501 577 33,000  Level FlightAware ADS-B (KBOS)
11:42PM 43.6513 -72.0710 36° Northeast 498 573 33,000  Level FlightAware ADS-B (KBOS)
11:42PM 43.7067 -72.0147 36° Northeast 496 571 33,000  Level FlightAware ADS-B (KBOS)
11:43PM 43.6450 -72.0780 217° Southwest 499 574 33,000  Level FlightAware ADS-B
11:43PM 43.7497 -71.9712 36° Northeast 497 572 33,000  Level FlightAware ADS-B (KSNC)
11:43PM 43.6780 -72.0440 216° Southwest 497 572 33,000  Level FlightAware ADS-B
11:43PM 43.8185 -71.9008 36° Northeast 490 564 33,000  Level FlightAware ADS-B (KBOS)
11:44PM 43.7400 -71.9810 216° Southwest 497 572 33,000  Level FlightAware ADS-B
11:44PM 43.8761 -71.8418 36° Northeast 485 558 33,000  Level FlightAware ADS-B (KSNC)
11:44PM 43.7950 -71.9240 216° Southwest 497 572 33,000  Level FlightAware ADS-B
11:45PM 43.9456 -71.7706 36° Northeast 485 558 33,000  Level FlightAware ADS-B (KBOS)
11:45PM 43.8530 -71.8650 216° Southwest 487 560 33,000  Level FlightAware ADS-B
11:45PM 44.0167 -71.6976 36° Northeast 487 560 33,000  Level FlightAware ADS-B (KBOS)
11:46PM 43.9310 -71.7860 217° Southwest 486 559 33,000  Level FlightAware ADS-B
11:46PM 44.0718 -71.6410 36° Northeast 495 570 33,000  Level FlightAware ADS-B (KBOS)
11:46PM 43.9690 -71.7470 217° Southwest 487 560 33,000  Level FlightAware ADS-B
11:46PM 44.1264 -71.5842 37° Northeast 489 563 33,000  Level FlightAware ADS-B (KBOS)
11:47PM 44.0060 -71.7090 217° Southwest 488 562 33,000  Level FlightAware ADS-B
11:47PM 44.1907 -71.5171 37° Northeast 478 550 33,000  Level FlightAware ADS-B (KBOS)
11:47PM 44.0600 -71.6530 217° Southwest 495 570 33,000  Level FlightAware ADS-B
11:47PM 44.2491 -71.4567 37° Northeast 483 556 33,000  Level FlightAware ADS-B (KBOS)
11:48PM 44.1050 -71.6070 217° Southwest 496 571 33,000  Level FlightAware ADS-B
11:48PM 44.2905 -71.4136 37° Northeast 493 567 33,000  Level FlightAware ADS-B (KBOS)
11:48PM 44.1430 -71.5670 217° Southwest 485 558 33,000  Level FlightAware ADS-B
11:49PM 44.3714 -71.3290 37° Northeast 489 563 33,000  Level FlightAware ADS-B
11:49PM 44.1880 -71.5210 217° Southwest 479 551 33,000  Level FlightAware ADS-B
11:49PM 44.2270 -71.4800 37° Northeast 480 552 33,000  Level FlightAware ADS-B
11:50PM 44.2670 -71.4380 37° Northeast 488 562 33,000  Level FlightAware ADS-B
11:51PM 44.6560 -71.0290 37° Northeast 494 568 33,000  Level FlightAware
11:52PM 44.3330 -71.3690 217° Southwest 495 570 33,000  Level FlightAware ADS-B
11:52PM 44.7950 -70.8810 37° Northeast 494 568 33,000  Level FlightAware
11:53PM 44.8980 -70.7720 37° Northeast 494 568 33,000  Level FlightAware
11:54PM 44.9880 -70.6750 37° Northeast 494 568 33,000  Level FlightAware
11:55PM 45.0660 -70.5900 38° Northeast 495 570 33,000  Level FlightAware
11:56PM 45.1460 -70.5040 37° Northeast 495 570 33,000  Level FlightAware
11:57PM 45.2388 -70.4033 37° Northeast 493 567 33,000  Level FlightAware ADS-B (CYSG)
11:58PM 45.3473 -70.2850 37° Northeast 496 571 33,000  Level FlightAware ADS-B (CYSG)
11:58PM 45.4060 -70.2210 37° Northeast 488 562 33,000  Level FlightAware
11:58PM 45.4433 -70.1797 38° Northeast 495 570 33,000  Level FlightAware ADS-B (CYSG)
11:59PM 45.5144 -70.1017 38° Northeast 497 572 33,000  Level FlightAware ADS-B (CYSG)
12:00AM 45.5802 -70.0291 38° Northeast 498 573 33,000  Level FlightAware ADS-B (CYSG)
12:00AM 45.6353 -69.9680 38° Northeast 496 571 33,000  Level FlightAware ADS-B (CYSG)
12:01AM 45.7319 -69.8607 38° Northeast 494 568 33,000  Level FlightAware ADS-B (CYSG)
12:02AM 45.7319 -69.8607 38° Northeast 493 567 33,000  Level FlightAware ADS-B (CYSG)
12:02AM 45.8764 -69.6993 38° Northeast 494 568 33,000  Level FlightAware ADS-B (CYSG)
12:03AM 45.9473 -69.6198 38° Northeast 494 568 33,000  Level FlightAware ADS-B (CYSG)
12:04AM 46.0020 -69.5580 38° Northeast 494 568 33,000  Level FlightAware
12:04AM 46.0301 -69.5264 38° Northeast 494 568 33,000  Level FlightAware ADS-B (CYSG)
12:04AM 46.0944 -69.4538 38° Northeast 495 570 33,000  Level FlightAware ADS-B (CYSG)
12:05AM 46.1361 -69.4065 38° Northeast 494 568 33,000  Level FlightAware ADS-B (CYSG)
12:05AM 46.1915 -69.3435 38° Northeast 491 565 33,000  Level FlightAware ADS-B (CYSG)
12:06AM 46.2540 -69.2723 38° Northeast 488 562 33,000  Level FlightAware ADS-B (CYSG)
12:07AM 46.3194 -69.1976 38° Northeast 488 562 33,000  Level FlightAware ADS-B (CYSG)
12:08AM 46.4230 -69.0790 38° Northeast 487 560 33,000  Level FlightAware
12:08AM 46.5110 -68.9770 39° Northeast 486 559 33,000  Level FlightAware
12:09AM 46.6030 -68.8710 38° Northeast 484 557 33,000  Level FlightAware
12:10AM 46.7170 -68.7390 38° Northeast 484 557 33,000  Level FlightAware
12:11AM 46.7950 -68.6470 39° Northeast 481 554 33,000  Level FlightAware
12:12AM 46.8620 -68.5680 39° Northeast 484 557 33,000  Level FlightAware
12:13AM 46.9935 -68.4134 39° Northeast 489 563 33,000  Level FlightAware ADS-B (CYSG)
12:14AM 47.1085 -68.2771 39° Northeast 490 564 33,000  Level FlightAware ADS-B (CYSG)
12:15AM 47.1587 -68.2172 39° Northeast 490 564 33,000  Level FlightAware ADS-B (CYSG)
12:15AM 47.2203 -68.1437 39° Northeast 493 567 33,000  Level FlightAware ADS-B (CYSG)
12:16AM 47.2739 -68.0794 39° Northeast 495 570 33,000  Level FlightAware ADS-B (CYSG)
12:16AM 47.3246 -68.0185 39° Northeast 496 571 33,000  Level FlightAware ADS-B (CYSG)
12:17AM 47.3939 -67.9351 39° Northeast 497 572 33,000  Level FlightAware ADS-B (CYSG)
12:17AM 47.4469 -67.8711 39° Northeast 498 573 33,000  Level FlightAware ADS-B (CYSG)
12:18AM 47.5199 -67.7826 39° Northeast 498 573 33,000  Level FlightAware ADS-B (CYSG)
12:19AM 47.5940 -67.6890 40° Northeast 498 573 33,000  Level FlightAware
12:20AM 47.7000 -67.5480 42° Northeast 495 570 33,000  Level FlightAware
12:21AM 47.7950 -67.4210 42° Northeast 492 566 33,000  Level FlightAware
12:22AM 47.8900 -67.2950 42° Northeast 490 564 33,000  Level FlightAware
12:22AM 47.9700 -67.1880 42° Northeast 490 564 33,000  Level FlightAware
12:23AM 48.0250 -67.1150 42° Northeast 491 565 33,000  Level FlightAware
12:24AM 48.1130 -66.9960 42° Northeast 491 565 33,000  Level FlightAware
12:25AM 48.2060 -66.8700 42° Northeast 491 565 33,000  Level FlightAware
12:25AM 48.2800 -66.7700 42° Northeast 493 567 33,000  Level FlightAware
12:26AM 48.3670 -66.6510 42° Northeast 493 567 33,000  Level FlightAware
12:27AM 48.4510 -66.5360 42° Northeast 493 567 33,000  Level FlightAware
12:28AM 48.5380 -66.4150 43° Northeast 493 567 33,000  Level FlightAware
12:28AM 48.5890 -66.3450 42° Northeast 494 568 33,000  Level FlightAware
12:29AM 48.6440 -66.2690 42° Northeast 494 568 33,000  Level FlightAware
12:30AM 48.7070 -66.1810 43° Northeast 493 567 33,000  Level FlightAware
12:31AM 48.8000 -66.0510 43° Northeast 491 565 33,000  Level FlightAware
12:31AM 48.8800 -65.9390 43° Northeast 488 562 33,000  Level FlightAware
12:32AM 48.9730 -65.8070 43° Northeast 487 560 33,000  Level FlightAware
12:33AM 49.0200 -65.7410 43° Northeast 487 560 33,000  Level FlightAware
12:34AM 49.1080 -65.6160 43° Northeast 489 563 33,000  Level FlightAware
12:35AM 49.2110 -65.4680 43° Northeast 490 564 33,000  Level FlightAware
12:35AM 49.2580 -65.4000 43° Northeast 488 562 33,000  Level FlightAware
12:36AM 49.3550 -65.2600 43° Northeast 488 562 33,000  Level FlightAware
12:37AM 49.4440 -65.1320 43° Northeast 490 564 33,000  Level FlightAware
12:38AM 49.4980 -65.0520 44° Northeast 491 565 33,000  Level FlightAware
12:38AM 49.5830 -64.9280 43° Northeast 491 565 33,000  Level FlightAware
12:39AM 49.6580 -64.8180 43° Northeast 489 563 33,000  Level FlightAware
12:40AM 49.6930 -64.7660 44° Northeast 490 564 33,000  Level FlightAware
12:41AM 49.8000 -64.6070 44° Northeast 492 566 33,000  Level FlightAware
12:42AM 49.8910 -64.4720 44° Northeast 491 565 33,000  Level FlightAware
12:42AM 49.9380 -64.4000 45° Northeast 491 565 33,000  Level FlightAware
12:43AM 50.0230 -64.2730 44° Northeast 491 565 33,000  Level FlightAware
12:44AM 50.0750 -64.1960 44° Northeast 491 565 33,000  Level FlightAware
12:44AM 50.1250 -64.1210 44° Northeast 491 565 33,000  Level FlightAware
12:45AM 50.2080 -63.9950 44° Northeast 491 565 33,000  Level FlightAware
12:46AM 50.2930 -63.8670 44° Northeast 491 565 33,000  Level FlightAware
12:47AM 50.3760 -63.7410 44° Northeast 491 565 33,000  Level FlightAware
12:48AM 50.4610 -63.6120 44° Northeast 491 565 33,000  Level FlightAware
12:49AM 50.5440 -63.4860 44° Northeast 491 565 33,000  Level FlightAware
12:50AM 50.5940 -63.4100 44° Northeast 491 565 33,000  Level FlightAware
12:51AM 50.6610 -63.3080 44° Northeast 491 565 33,000  Level FlightAware
12:51AM 50.7110 -63.2320 44° Northeast 491 565 33,000  Level FlightAware
12:52AM 50.9000 -62.8667 44° Northeast 500 575 33,000  Level Gander Center
12:53AM 50.9500 -62.8167 32° Northeast 490 564 33,000  Level Gander Center
12:53AM 51.0000 -62.7167 52° Northeast 500 575 33,000  Level Moncton Center
12:54AM 51.1000 -62.5500 46° Northeast 500 575 33,000  Level Moncton Center
12:55AM 51.2000 -62.4000 43° Northeast 490 564 33,000  Level Moncton Center
12:56AM 51.3000 -62.2333 46° Northeast 490 564 33,000  Level Moncton Center
12:57AM 51.4000 -62.0833 43° Northeast 490 564 33,000  Level Moncton Center
12:58AM 51.4833 -61.9167 51° Northeast 490 564 33,000  Level Moncton Center
12:59AM 51.5833 -61.7500 46° Northeast 490 564 33,000  Level Moncton Center
01:00AM 51.6667 -61.6167 45° Northeast 500 575 33,000  Level Moncton Center
01:01AM 51.7833 -61.4500 41° Northeast 500 575 33,000  Level Moncton Center
01:02AM 51.8667 -61.2833 51° Northeast 500 575 33,000  Level Moncton Center
01:03AM 51.9500 -61.1167 51° Northeast 500 575 33,000  Level Moncton Center
01:04AM 52.0500 -60.9333 48° Northeast 500 575 33,000  Level Moncton Center
01:05AM 52.1500 -60.7667 46° Northeast 500 575 33,000  Level Moncton Center
01:06AM 52.2500 -60.6000 46° Northeast 500 575 33,000  Level Moncton Center
01:07AM 52.3167 -60.4500 54° Northeast 500 575 33,000  Level Moncton Center
01:08AM 52.4333 -60.2500 46° Northeast 500 575 33,000  Level Moncton Center
01:09AM 52.5167 -60.1167 44° Northeast 500 575 33,000  Level Moncton Center
01:10AM 52.6000 -59.9000 58° Northeast 500 575 33,000  Level Moncton Center
01:11AM 52.7000 -59.7667 39° Northeast 500 575 33,000  Level Moncton Center
01:12AM 52.7833 -59.5500 57° Northeast 510 587 33,000  Level Moncton Center
01:13AM 52.8833 -59.4000 42° Northeast 510 587 33,000  Level Moncton Center
01:14AM 52.9833 -59.2333 45° Northeast 510 587 33,000  Level Moncton Center
01:15AM 53.0667 -59.0167 57° Northeast 510 587 33,000  Level Moncton Center
01:16AM 53.1667 -58.8500 45° Northeast 510 587 33,000  Level Moncton Center
01:17AM 53.2500 -58.6667 53° Northeast 510 587 33,000  Level Moncton Center
01:18AM 53.3500 -58.4833 48° Northeast 510 587 33,000  Level Moncton Center
01:19AM 53.4333 -58.3000 53° Northeast 510 587 33,000  Level Moncton Center
01:20AM 53.5333 -58.1167 47° Northeast 520 598 33,000  Level Moncton Center
01:21AM 53.6167 -57.9333 52° Northeast 520 598 33,000  Level Moncton Center
01:22AM 53.7167 -57.7500 47° Northeast 520 598 33,000  Level Moncton Center
01:23AM 53.8000 -57.5500 55° Northeast 520 598 33,000  Level Moncton Center
01:24AM 53.8833 -57.3500 55° Northeast 520 598 33,000  Level Moncton Center
01:25AM 53.9833 -57.1667 47° Northeast 520 598 33,000  Level Moncton Center
01:26AM 54.0833 -56.9833 47° Northeast 520 598 33,000  Level Moncton Center
01:27AM 54.1667 -56.8000 52° Northeast 520 598 33,000  Level Moncton Center
01:28AM 54.2667 -56.5833 52° Northeast 520 598 33,000  Level Moncton Center
01:29AM 54.3500 -56.3833 54° Northeast 520 598 33,000  Level Moncton Center
01:30AM 54.4333 -56.2000 52° Northeast 520 598 33,000  Level Moncton Center
01:31AM 54.5333 -56.0167 47° Northeast 520 598 33,000  Level Moncton Center
01:32AM 54.6167 -55.7833 58° Northeast 520 598 33,000  Level Moncton Center
01:33AM 54.7000 -55.6000 52° Northeast 520 598 33,000  Level Moncton Center
01:34AM 54.7833 -55.4000 54° Northeast 530 610 33,000  Level Moncton Center
01:35AM 54.8667 -55.1833 56° Northeast 530 610 33,000  Level Moncton Center
01:36AM 54.9667 -54.9833 49° Northeast 530 610 33,000  Level Moncton Center
01:37AM 55.0667 -54.7833 49° Northeast 530 610 33,000  Level Moncton Center
01:38AM 55.1500 -54.5833 54° Northeast 530 610 33,000  Level Moncton Center
01:39AM 55.2333 -54.3667 56° Northeast 530 610 33,000  Level Moncton Center
01:40AM 55.3167 -54.1667 54° Northeast 530 610 33,000  Level Moncton Center
01:41AM 55.4000 -53.9667 54° Northeast 530 610 33,000  Level Moncton Center
01:43AM 55.5167 -53.6833 54° Northeast 530 610 33,000  Level Gander Center
01:44AM 55.6167 -53.4667 51° Northeast 510 587 33,000  Level Gander Center
01:45AM 55.7000 -53.2667 53° Northeast 530 610 33,000  Level Gander Center
01:46AM 55.7833 -53.0500 56° Northeast 530 610 33,000  Level Gander Center
01:47AM 55.8667 -52.8500 53° Northeast 530 610 33,000  Level Gander Center
01:48AM 55.9500 -52.6167 57° Northeast 530 610 33,000  Level Gander Center
01:49AM 56.0500 -52.4167 48° Northeast 530 610 33,000  Level Gander Center
01:50AM 56.1333 -52.2167 53° Northeast 530 610 33,000  Level Gander Center
01:51AM 56.2000 -51.9833 63° Northeast 520 598 33,000  Level Gander Center
01:53AM 56.3703 -51.8211 28° Northeast  Level Estimated
02:00AM 57.1709 -51.0354 28° Northeast  Level Estimated
02:01AM 57.2849 -50.9204 29° Northeast  Level Estimated
02:02AM 57.3987 -50.8047 29° Northeast  Level Estimated
02:03AM 57.5125 -50.6883 29° Northeast  Level Estimated
02:03AM 57.1500 -49.2500 29° Northeast 520 598 33,000  Level Gander Center
02:04AM 57.6261 -50.5711 29° Northeast  Level Estimated
02:04AM 57.2000 -49.0167 68° East 520 598 33,000  Level Gander Center
02:05AM 57.7397 -50.4532 29° Northeast  Level Estimated
02:05AM 57.2667 -48.7667 64° Northeast 520 598 33,000  Level Gander Center
02:06AM 57.8531 -50.3345 29° Northeast  Level Estimated
02:06AM 57.3167 -48.5333 68° East 520 598 33,000  Level Gander Center
02:07AM 57.9664 -50.2151 29° Northeast  Level Estimated
02:07AM 57.3667 -48.2667 71° East 520 598 33,000  Level Gander Center
02:08AM 58.0796 -50.0950 29° Northeast  Level Estimated
02:08AM 57.4333 -48.0333 62° Northeast 520 598 33,000  Level Gander Center
02:09AM 57.4833 -47.7833 69° East 520 598 33,000  Level Gander Center
02:10AM 57.5500 -47.5500 62° Northeast 530 610 33,000  Level Gander Center
02:11AM 57.6000 -47.2667 72° East 530 610 33,000  Level Gander Center
02:12AM 57.6667 -47.0333 62° Northeast 530 610 33,000  Level Gander Center
02:13AM 57.7167 -46.7833 69° East 530 610 33,000  Level Gander Center
02:14AM 57.7667 -46.5000 72° East 530 610 33,000  Level Gander Center
02:15AM 57.8333 -46.2667 62° Northeast 530 610 33,000  Level Gander Center
02:16AM 57.8667 -46.0167 76° East 530 610 33,000  Level Gander Center
02:17AM 57.9333 -45.7667 63° Northeast 530 610 33,000  Level Gander Center
02:18AM 57.0000 -50.0000 65° Northeast 509 586 33,000  Level ETMS Enhanced Traffic Management System
02:19AM 58.0333 -45.2500 65° Northeast 520 598 33,000  Level Gander Center
02:20AM 58.0833 -45.0000 69° East 520 598 33,000  Level Gander Center
02:21AM 58.1333 -44.7500 69° East 520 598 33,000  Level Gander Center
02:22AM 58.2000 -44.5000 63° Northeast 530 610 33,000  Level Gander Center
02:23AM 58.2167 -44.2167 84° East 520 598 33,000  Level Gander Center
02:24AM 58.2833 -43.9667 63° Northeast 530 610 33,000  Level Gander Center
02:25AM 58.3333 -43.7167 69° East 530 610 33,000  Level Gander Center
02:26AM 58.3833 -43.4333 71° East 530 610 33,000  Level Gander Center
02:27AM 58.4333 -43.1833 69° East 530 610 33,000  Level Gander Center
02:28AM 58.4833 -42.9333 69° East 530 610 33,000  Level Gander Center
02:29AM 58.5167 -42.6667 76° East 520 598 33,000  Level Gander Center
02:30AM 58.5667 -42.4167 69° East 520 598 33,000  Level Gander Center
02:31AM 58.6000 -42.1333 77° East 520 598 33,000  Level Gander Center
02:32AM 58.6500 -41.8833 69° East 520 598 33,000  Level Gander Center
02:33AM 58.7000 -41.6167 70° East 520 598 33,000  Level Gander Center
02:34AM 58.7500 -41.3667 69° East 520 598 33,000  Level Gander Center
02:35AM 58.7833 -41.1000 76° East 520 598 33,000  Level Gander Center
02:36AM 58.8333 -40.8167 71° East 530 610 33,000  Level Gander Center
02:37AM 58.8833 -40.5500 70° East 530 610 33,000  Level Gander Center
02:38AM 58.9167 -40.3000 75° East 520 598 33,000  Level Gander Center
02:39AM 58.9500 -40.0167 77° East 520 598 33,000  Level Gander Center
02:40AM 58.9833 -39.7500 76° East 530 610 33,000  Level Gander Center
02:41AM 59.0333 -39.5000 69° East 530 610 33,000  Level Gander Center
02:42AM 59.0667 -39.2000 78° East 530 610 33,000  Level Gander Center
02:43AM 59.1167 -38.9333 70° East 520 598 33,000  Level Gander Center
02:44AM 59.1333 -38.6833 82° East 520 598 33,000  Level Gander Center
02:45AM 59.1667 -38.4167 76° East 520 598 33,000  Level Gander Center
02:46AM 59.2167 -38.1167 72° East 530 610 33,000  Level Gander Center
02:47AM 59.0000 -40.0000 75° East 502 578 33,000  Level ETMS Enhanced Traffic Management System
02:48AM 59.2667 -37.6000 75° East 520 598 33,000  Level Gander Center
02:49AM 59.3000 -37.3000 78° East 520 598 33,000  Level Gander Center
02:50AM 59.3500 -37.0333 70° East 520 598 33,000  Level Gander Center
02:51AM 59.3667 -36.7833 82° East 520 598 33,000  Level Gander Center
02:52AM 59.4000 -36.4833 78° East 530 610 33,000  Level Gander Center
02:53AM 59.4333 -36.2167 76° East 530 610 33,000  Level Gander Center
02:54AM 59.4667 -35.9500 76° East 520 598 33,000  Level Gander Center
02:55AM 59.4833 -35.6667 83° East 520 598 33,000  Level Gander Center
02:56AM 59.5167 -35.4000 76° East 520 598 33,000  Level Gander Center
02:57AM 59.5500 -35.1167 77° East 520 598 33,000  Level Gander Center
02:59AM 59.6991 -34.8244 45° Northeast  Level Estimated
03:06AM 60.3372 -33.5287 45° Northeast  Level Estimated
03:07AM 60.4273 -33.3394 46° Northeast  Level Estimated
03:08AM 60.5171 -33.1492 46° Northeast  Level Estimated
03:09AM 60.6067 -32.9578 46° Northeast  Level Estimated
03:10AM 60.6959 -32.7654 46° Northeast  Level Estimated
03:11AM 60.7849 -32.5719 47° Northeast  Level Estimated
03:12AM 60.8736 -32.3774 47° Northeast  Level Estimated
03:13AM 60.9621 -32.1818 47° Northeast  Level Estimated
03:14AM 61.0503 -31.9851 47° Northeast  Level Estimated
03:15AM 61.1381 -31.7872 47° Northeast  Level Estimated
03:16AM 61.2257 -31.5883 48° Northeast  Level Estimated
03:17AM 61.3130 -31.3883 48° Northeast  Level Estimated
03:18AM 61.4000 -31.1871 48° Northeast  Level Estimated
03:19AM 61.4867 -30.9849 48° Northeast  Level Estimated
03:19AM 60.0000 -30.0000 86° East 528 608 33,000  Level ETMS Enhanced Traffic Management System
03:20AM 61.5731 -30.7815 48° Northeast  Level Estimated
03:20AM 60.0000 -30.0000 86° East 528 608 33,000  Level ETMS Enhanced Traffic Management System
03:21AM 61.6591 -30.5770 48° Northeast  Level Estimated
03:22AM 61.7449 -30.3713 49° Northeast  Level Estimated
03:23AM 61.8304 -30.1645 49° Northeast  Level Estimated
03:24AM 61.9156 -29.9566 49° Northeast  Level Estimated
03:25AM 60.0736 -27.3564 88° East 528 608 33,000  Level FlightAware Transoceanic
03:26AM 60.0785 -27.0621 88° East 528 608 33,000  Level FlightAware Transoceanic
03:27AM 60.0827 -26.7677 88° East 528 608 33,000  Level FlightAware Transoceanic
03:28AM 60.0863 -26.4732 89° East 528 608 33,000  Level FlightAware Transoceanic
03:29AM 60.0893 -26.1786 89° East 528 608 33,000  Level FlightAware Transoceanic
03:30AM 60.0915 -25.8840 89° East 528 608 33,000  Level FlightAware Transoceanic
03:31AM 60.0932 -25.5893 89° East 528 608 33,000  Level FlightAware Transoceanic
03:32AM 60.0942 -25.2947 90° East 528 608 33,000  Level FlightAware Transoceanic
03:33AM 60.0945 -25.0000 90° East 528 608 33,000  Level FlightAware Transoceanic
03:34AM 60.0942 -24.7053 90° East 528 608 33,000  Level FlightAware Transoceanic
03:35AM 60.0932 -24.4107 91° East 528 608 33,000  Level FlightAware Transoceanic
03:36AM 60.0915 -24.1160 91° East 528 608 33,000  Level FlightAware Transoceanic
03:37AM 60.0893 -23.8214 91° East 528 608 33,000  Level FlightAware Transoceanic
03:38AM 60.0863 -23.5268 91° East 528 608 33,000  Level FlightAware Transoceanic
03:39AM 60.0827 -23.2323 92° East 528 608 33,000  Level FlightAware Transoceanic
03:40AM 60.0785 -22.9379 92° East 528 608 33,000  Level FlightAware Transoceanic
03:41AM 60.0736 -22.6436 92° East 528 608 33,000  Level FlightAware Transoceanic
03:42AM 60.0680 -22.3493 92° East 528 608 33,000  Level FlightAware Transoceanic
03:43AM 60.0618 -22.0551 93° East 528 608 33,000  Level FlightAware Transoceanic
03:44AM 60.0549 -21.7611 93° East 528 608 33,000  Level FlightAware Transoceanic
03:45AM 60.0474 -21.4672 93° East 528 608 33,000  Level FlightAware Transoceanic
03:46AM 60.0392 -21.1734 93° East 528 608 33,000  Level FlightAware Transoceanic
03:47AM 60.0304 -20.8798 94° East 528 608 33,000  Level FlightAware Transoceanic
03:48AM 60.0209 -20.5864 94° East 528 608 33,000  Level FlightAware Transoceanic
03:49AM 60.0108 -20.2931 94° East 528 608 33,000  Level FlightAware Transoceanic
03:50AM 60.0778 -20.0703 59° Northeast  Level Estimated
03:51AM 60.1444 -19.8466 59° Northeast  Level Estimated
03:52AM 60.2107 -19.6221 59° Northeast  Level Estimated
03:53AM 60.2766 -19.3966 59° Northeast  Level Estimated
03:54AM 60.3420 -19.1702 60° Northeast  Level Estimated
03:55AM 60.4071 -18.9429 60° Northeast  Level Estimated
03:56AM 60.4719 -18.7147 60° Northeast  Level Estimated
03:57AM 60.5362 -18.4856 60° Northeast  Level Estimated
03:58AM 60.6001 -18.2555 60° Northeast  Level Estimated
03:59AM 60.6636 -18.0246 61° Northeast  Level Estimated
04:00AM 60.7268 -17.7927 61° Northeast  Level Estimated
04:01AM 60.7895 -17.5600 61° Northeast  Level Estimated
04:02AM 60.8518 -17.3263 61° Northeast  Level Estimated
04:03AM 60.9137 -17.0917 61° Northeast  Level Estimated
04:04AM 60.9753 -16.8562 62° Northeast  Level Estimated
04:05AM 61.0364 -16.6198 62° Northeast  Level Estimated
04:06AM 61.0970 -16.3825 62° Northeast  Level Estimated
04:07AM 61.1573 -16.1443 62° Northeast  Level Estimated
04:08AM 61.2172 -15.9052 62° Northeast  Level Estimated
04:09AM 61.2766 -15.6651 63° Northeast  Level Estimated
04:10AM 61.3356 -15.4242 63° Northeast  Level Estimated
04:11AM 61.3942 -15.1824 63° Northeast  Level Estimated
04:12AM 61.4523 -14.9396 63° Northeast  Level Estimated
04:13AM 61.5100 -14.6959 64° Northeast  Level Estimated
04:14AM 61.5673 -14.4514 64° Northeast  Level Estimated
04:15AM 61.6241 -14.2059 64° Northeast  Level Estimated
04:16AM 61.6805 -13.9596 64° Northeast  Level Estimated
04:17AM 61.7365 -13.7123 64° Northeast  Level Estimated
04:18AM 61.7920 -13.4641 65° Northeast  Level Estimated
04:19AM 61.8470 -13.2151 65° Northeast  Level Estimated
04:20AM 61.9016 -12.9651 65° Northeast  Level Estimated
04:21AM 61.9557 -12.7143 65° Northeast  Level Estimated
04:22AM 62.0094 -12.4626 65° Northeast  Level Estimated
04:23AM 62.0627 -12.2100 66° East  Level Estimated
04:24AM 62.1154 -11.9565 66° East  Level Estimated
04:25AM 62.1677 -11.7021 66° East  Level Estimated
04:26AM 62.2196 -11.4469 66° East  Level Estimated
04:27AM 62.2709 -11.1908 67° East  Level Estimated
04:28AM 62.3218 -10.9338 67° East  Level Estimated
04:29AM 62.3722 -10.6759 67° East  Level Estimated
04:29AM 61.0510 -7.6400 67° East 571 657 33,000  Level FlightAware
04:30AM 62.4221 -10.4172 67° East  Level Estimated
04:30AM 61.0540 -7.4340 88° East 571 657 33,000  Level FlightAware
04:30AM 61.0580 -7.2610 87° East 572 658 33,000  Level FlightAware
04:31AM 61.0600 -7.0660 89° East 572 658 33,000  Level FlightAware
04:32AM 61.0630 -6.8890 88° East 572 658 33,000  Level FlightAware
04:32AM 61.0630 -6.8790 90° East 534 615 33,000  Level FlightAware
04:33AM 61.0690 -6.4100 88° East 569 655 33,000  Level FlightAware
04:34AM 61.0710 -6.2030 89° East 570 656 33,000  Level FlightAware
04:34AM 61.0720 -5.9750 89° East 570 656 33,000  Level FlightAware
04:35AM 61.0740 -5.7620 89° East 572 658 33,000  Level FlightAware
04:36AM 61.0750 -5.5780 89° East 571 657 33,000  Level FlightAware
04:36AM 61.0760 -5.3620 89° East 570 656 33,000  Level FlightAware
04:37AM 61.0760 -5.0440 90° East 572 658 33,000  Level FlightAware
04:38AM 61.0760 -4.8670 90° East 572 658 33,000  Level FlightAware
04:38AM 61.0760 -4.6690 90° East 572 658 33,000  Level FlightAware
04:39AM 61.0750 -4.4590 90° East 574 661 33,000  Level FlightAware
04:40AM 61.0730 -4.0890 90° East 577 664 33,000  Level FlightAware
04:41AM 61.0720 -3.9480 91° East 577 664 33,000  Level FlightAware
04:41AM 61.0700 -3.7270 91° East 578 665 33,000  Level FlightAware
04:42AM 61.0680 -3.5090 91° East 577 664 33,000  Level FlightAware
04:43AM 61.0640 -3.1790 91° East 579 666 33,000  Level FlightAware
04:43AM 61.0610 -2.9840 92° East 580 667 33,000  Level FlightAware
04:44AM 61.0580 -2.8070 92° East 580 667 33,000  Level FlightAware
04:45AM 61.0550 -2.6150 92° East 581 669 33,000  Level FlightAware
04:45AM 61.0510 -2.3980 92° East 582 670 33,000  Level FlightAware
04:46AM 61.0460 -2.1510 92° East 580 667 33,000  Level FlightAware
04:47AM 61.0410 -1.9540 93° East 582 670 33,000  Level FlightAware
04:47AM 61.0380 -1.7970 92° East 583 671 33,000  Level FlightAware
04:48AM 61.0280 -1.3930 93° East 585 673 33,000  Level FlightAware
04:49AM 61.0220 -1.1940 93° East 584 672 33,000  Level FlightAware
04:50AM 61.0160 -0.9650 93° East 585 673 33,000  Level FlightAware
04:50AM 61.0100 -0.7730 94° East 585 673 33,000  Level FlightAware
04:51AM 61.0030 -0.5660 94° East 585 673 33,000  Level FlightAware
04:51AM 60.9960 -0.3730 94° East 583 671 33,000  Level FlightAware
04:52AM 60.9880 -0.1200 94° East 580 667 33,000  Level FlightAware
04:53AM 60.9720 0.0960 99° East 575 662 33,000  Level FlightAware
04:53AM 60.9520 0.2690 103° East 576 663 33,000  Level FlightAware
04:54AM 60.9320 0.4550 102° East 576 663 33,000 420 Level FlightAware
04:55AM 60.9210 0.7260 95° East 586 674 33,600 1,140 Climbing FlightAware
04:55AM 60.9160 0.9650 92° East 579 666 34,800 900 Climbing FlightAware
04:56AM 60.9110 1.2170 92° East 573 659 35,000 120 Climbing FlightAware
04:57AM 60.9050 1.4970 92° East 570 656 35,000  Level FlightAware
04:58AM 60.8990 1.7510 93° East 569 655 35,000  Level FlightAware
04:58AM 60.8930 1.9720 93° East 568 654 35,000  Level FlightAware
04:59AM 60.8880 2.1360 94° East 567 652 35,000  Level FlightAware
05:00AM 60.8770 2.4990 93° East 565 650 35,000  Level FlightAware
05:01AM 60.8690 2.7520 94° East 564 649 35,000  Level FlightAware
05:01AM 60.8640 2.9120 94° East 565 650 35,000  Level FlightAware
05:02AM 60.8570 3.1200 94° East 565 650 35,000  Level FlightAware
05:03AM 60.8490 3.3350 94° East 561 646 35,000  Level FlightAware
05:03AM 60.8420 3.5200 94° East 559 643 35,000  Level FlightAware
05:04AM 60.8340 3.7150 95° East 558 642 35,000  Level FlightAware
05:05AM 60.8270 3.8990 94° East 560 644 35,000  Level FlightAware
05:05AM 60.8190 4.0920 95° East 560 644 35,000  Level FlightAware
05:06AM 60.8090 4.3050 95° East 560 644 35,000  Level FlightAware
05:06AM 60.8010 4.4920 95° East 560 644 35,000  Level FlightAware
05:07AM 60.7910 4.7060 95° East 559 643 35,000  Level FlightAware
05:08AM 60.7790 4.9410 96° East 558 642 35,000  Level FlightAware
05:09AM 60.7670 5.1950 95° East 559 643 35,000  Level FlightAware
05:09AM 60.7590 5.3440 96° East 559 643 35,000  Level FlightAware
05:10AM 60.7500 5.5120 96° East 559 643 35,000  Level FlightAware
05:10AM 60.7414 5.6670 96° East 558 642 35,000  Level FlightAware ADS-B (EGBP)
05:11AM 60.7297 5.8753 96° East 559 643 35,000  Level FlightAware ADS-B (EGBP)
05:11AM 60.7182 6.0756 97° East 557 641 35,000  Level FlightAware ADS-B (EGBP)
05:12AM 60.7083 6.2425 97° East 558 642 35,000  Level FlightAware ADS-B (EGBP)
05:12AM 60.6988 6.3994 97° East 556 640 35,000  Level FlightAware ADS-B (EGBP)
05:13AM 60.6863 6.6034 97° East 554 638 35,000  Level FlightAware ADS-B (EGBP)
05:14AM 60.6736 6.8040 97° East 555 639 35,000  Level FlightAware ADS-B (EGBP)
05:14AM 60.6635 6.9600 97° East 554 638 35,000  Level FlightAware ADS-B (EGBP)
05:15AM 60.6530 7.1201 98° East 553 636 35,000  Level FlightAware ADS-B (EGBP)
05:15AM 60.6429 7.2716 98° East 554 638 35,000  Level FlightAware ADS-B (EGBP)
05:16AM 60.6321 7.4285 98° East 555 639 35,000  Level FlightAware ADS-B (EGBP)
05:16AM 60.6181 7.6301 98° East 556 640 35,000  Level FlightAware ADS-B (EGBP)
05:18AM 60.5940 7.9700 98° East 557 641 35,000  Level FlightAware
05:18AM 60.5800 8.1580 99° East 557 641 35,000  Level FlightAware
05:19AM 60.5610 8.4100 99° East 555 639 35,000  Level FlightAware
05:20AM 60.5440 8.6280 99° East 556 640 35,000  Level FlightAware
05:20AM 60.5290 8.8220 99° East 556 640 35,000  Level FlightAware
05:21AM 60.5120 9.0310 99° East 555 639 35,000  Level FlightAware
05:22AM 60.4940 9.2470 100° East 555 639 35,000  Level FlightAware
05:22AM 60.4790 9.4220 100° East 556 640 35,000  Level FlightAware
05:23AM 60.4660 9.5740 100° East 556 640 35,000  Level FlightAware
05:23AM 60.4510 9.7510 100° East 556 640 35,000  Level FlightAware
05:24AM 60.4370 9.9130 100° East 554 638 35,000  Level FlightAware
05:25AM 60.4180 10.1280 100° East 555 639 35,000  Level FlightAware
05:25AM 60.4020 10.3010 101° East 554 638 35,000  Level FlightAware
05:26AM 60.3860 10.4730 101° East 555 639 35,000  Level FlightAware
05:26AM 60.3660 10.6890 101° East 557 641 35,000  Level FlightAware
05:27AM 60.3490 10.8720 101° East 558 642 35,000  Level FlightAware
05:28AM 60.3170 11.1910 101° East 559 643 35,000  Level FlightAware
05:29AM 60.2980 11.3850 101° East 558 642 35,000  Level FlightAware
05:30AM 60.2650 11.7130 101° East 555 639 35,000  Level FlightAware
05:30AM 60.2440 11.9120 102° East 557 641 35,000  Level FlightAware
05:31AM 60.2290 12.0530 102° East 556 640 35,000  Level FlightAware
05:32AM 60.2080 12.2560 102° East 558 642 35,000  Level FlightAware
05:32AM 60.1840 12.4780 102° East 561 646 35,000  Level FlightAware
05:33AM 60.1740 12.5950 100° East 557 641 35,000  Level FlightAware
05:33AM 60.1630 12.7630 97° East 556 640 35,000  Level FlightAware
05:34AM 60.1510 12.9480 97° East 556 640 35,000  Level FlightAware
05:35AM 60.1190 13.2490 102° East 565 650 35,000  Level FlightAware
05:36AM 60.0910 13.4730 104° East 564 649 35,000  Level FlightAware
05:36AM 60.0700 13.6360 104° East 563 648 35,000  Level FlightAware
05:37AM 60.0520 13.7780 104° East 561 646 35,000  Level FlightAware
05:38AM 60.0070 14.1280 104° East 562 647 35,000  Level FlightAware
05:38AM 59.9870 14.2740 105° East 560 644 35,000  Level FlightAware
05:39AM 59.9580 14.4960 105° East 558 642 35,000  Level FlightAware
05:40AM 59.9370 14.6470 105° East 559 643 35,000  Level FlightAware
05:41AM 59.8940 14.9620 105° East 559 643 35,000  Level FlightAware
05:41AM 59.8770 15.0860 105° East 557 641 35,000  Level FlightAware
05:42AM 59.8460 15.3090 105° East 555 639 35,000  Level FlightAware
05:42AM 59.8170 15.5140 106° East 553 636 35,000  Level FlightAware
05:43AM 59.7890 15.7050 106° East 550 633 35,000  Level FlightAware
05:44AM 59.7630 15.8830 106° East 551 634 35,000  Level FlightAware
05:44AM 59.7400 16.0410 106° East 552 635 35,000  Level FlightAware
05:45AM 59.7160 16.2040 106° East 551 634 35,000  Level FlightAware
05:45AM 59.6870 16.3950 107° East 544 626 35,000  Level FlightAware
05:46AM 59.6620 16.5580 107° East 543 625 35,000  Level FlightAware
05:47AM 59.6310 16.7630 107° East 537 618 35,000  Level FlightAware
05:47AM 59.5980 16.9750 107° East 532 612 35,000  Level FlightAware
05:48AM 59.5760 17.1130 107° East 538 619 35,000  Level FlightAware
05:49AM 59.5470 17.2960 107° East 538 619 35,000  Level FlightAware
05:49AM 59.5240 17.4430 107° East 529 609 35,000  Level FlightAware
05:50AM 59.4700 17.7730 108° East 528 608 35,000  Level FlightAware
05:51AM 59.4410 17.9500 108° East 536 617 35,000  Level FlightAware
05:52AM 59.4170 18.0990 108° East 537 618 35,000  Level FlightAware
05:52AM 59.3880 18.2700 108° East 535 616 35,000  Level FlightAware
05:53AM 59.3640 18.4090 109° East 532 612 35,000  Level FlightAware
05:54AM 59.3190 18.6750 108° East 526 605 35,000  Level FlightAware
05:54AM 59.3000 18.7840 109° East 522 601 35,000  Level FlightAware
05:55AM 59.2720 18.9460 109° East 519 597 35,000  Level FlightAware
05:56AM 59.2180 19.2510 109° East 514 592 35,000  Level FlightAware
05:57AM 59.1870 19.4270 109° East 509 586 35,000  Level FlightAware
05:57AM 59.1580 19.5860 110° East 507 583 35,000  Level FlightAware
05:58AM 59.1270 19.7570 109° East 507 583 35,000  Level FlightAware
05:58AM 59.1020 19.8980 109° East 511 588 35,000  Level FlightAware
05:59AM 59.0620 20.1140 110° East 514 592 35,000  Level FlightAware
06:00AM 59.0350 20.2590 110° East 517 595 35,000  Level FlightAware
06:00AM 59.0020 20.4330 110° East 514 592 35,000  Level FlightAware
06:01AM 58.9790 20.5530 110° East 517 595 35,000  Level FlightAware
06:01AM 58.9530 20.6920 110° East 517 595 35,000  Level FlightAware
06:03AM 58.8980 20.9910 109° East 495 570 35,000  Level FlightAware
06:03AM 58.8750 21.1820 103° East 499 574 35,000  Level FlightAware
06:04AM 58.8570 21.3270 103° East 495 570 35,000  Level FlightAware
06:04AM 58.8370 21.4810 104° East 491 565 35,000  Level FlightAware
06:05AM 58.8180 21.6330 104° East 491 565 35,000  Level FlightAware
06:05AM 58.8030 21.7450 104° East 489 563 35,000  Level FlightAware
06:06AM 58.7880 21.8650 104° East 486 559 35,000  Level FlightAware
06:06AM 58.7720 21.9820 105° East 486 559 35,000  Level FlightAware
06:08AM 58.7300 22.3030 104° East 496 571 35,000  Level FlightAware
06:08AM 58.7130 22.4270 105° East 498 573 35,000  Level FlightAware
06:09AM 58.6890 22.6020 105° East 496 571 35,000  Level FlightAware
06:10AM 58.6670 22.7660 104° East 497 572 35,000  Level FlightAware
06:10AM 58.6440 22.9270 105° East 502 578 35,000  Level FlightAware
06:11AM 58.6270 23.0500 105° East 504 580 35,000  Level FlightAware
06:12AM 58.5930 23.2900 105° East 503 579 35,000  Level FlightAware
06:13AM 58.5540 23.5570 106° East 504 580 35,000  Level FlightAware
06:13AM 58.5290 23.7290 105° East 502 578 35,000  Level FlightAware
06:14AM 58.4920 23.9810 106° East 505 581 35,000  Level FlightAware
06:15AM 58.4690 24.1340 106° East 505 581 35,000  Level FlightAware
06:16AM 58.4400 24.3270 106° East 502 578 35,000  Level FlightAware
06:16AM 58.4190 24.4600 107° East 500 575 35,000  Level FlightAware
06:17AM 58.3910 24.6300 107° East 500 575 35,000  Level FlightAware
06:18AM 58.3420 24.8950 109° East 499 574 35,000  Level FlightAware
06:19AM 58.3120 25.0640 109° East 500 575 35,000  Level FlightAware
06:19AM 58.2800 25.2430 109° East 506 582 35,000  Level FlightAware
06:20AM 58.2550 25.3770 109° East 506 582 35,000  Level FlightAware
06:21AM 58.2210 25.5580 110° East 504 580 35,000  Level FlightAware
06:21AM 58.1880 25.7400 109° East 506 582 35,000  Level FlightAware
06:22AM 58.1580 25.8980 110° East 503 579 35,000  Level FlightAware
06:22AM 58.1300 26.0450 110° East 505 581 35,000  Level FlightAware
06:23AM 58.0960 26.2220 110° East 506 582 35,000  Level FlightAware
06:24AM 58.0630 26.3940 110° East 505 581 35,000  Level FlightAware
06:24AM 58.0350 26.5370 110° East 505 581 35,000  Level FlightAware
06:25AM 58.0030 26.7010 110° East 505 581 35,000  Level FlightAware
06:26AM 57.9670 26.8820 110° East 501 577 35,000  Level FlightAware
06:26AM 57.9380 27.0270 111° Southeast 502 578 35,000  Level FlightAware
06:27AM 57.9050 27.1890 111° Southeast 503 579 35,000  Level FlightAware
06:28AM 57.8730 27.3490 111° Southeast 500 575 35,000  Level FlightAware
06:28AM 57.8390 27.5050 112° Southeast 500 575 35,000  Level FlightAware
06:30AM 57.7640 27.7490 120° Southeast 505 581 35,000  Level FlightAware
06:30AM 57.7230 27.8790 121° Southeast 507 583 35,000  Level FlightAware
06:31AM 57.6770 28.0170 122° Southeast 508 585 35,000  Level FlightAware
06:31AM 57.6230 28.1760 122° Southeast 506 582 35,000  Level FlightAware
06:32AM 57.5770 28.3120 122° Southeast 505 581 35,000  Level FlightAware
06:33AM 57.5230 28.4690 123° Southeast 502 578 35,000  Level FlightAware
06:33AM 57.4860 28.5800 122° Southeast 501 577 35,000  Level FlightAware
06:34AM 57.4400 28.7120 123° Southeast 500 575 35,000  Level FlightAware
06:34AM 57.3960 28.8390 123° Southeast 501 577 35,000  Level FlightAware
06:35AM 57.3560 28.9540 123° Southeast 502 578 35,000  Level FlightAware
06:36AM 57.3040 29.1020 123° Southeast 503 579 35,000  Level FlightAware
06:36AM 57.2600 29.2270 123° Southeast 504 580 35,000  Level FlightAware
06:37AM 57.1970 29.4060 123° Southeast 501 577 35,000  Level FlightAware
06:38AM 57.1600 29.5090 123° Southeast 499 574 35,000  Level FlightAware
06:38AM 57.1270 29.6010 123° Southeast 500 575 35,000  Level FlightAware
06:39AM 57.0690 29.7640 123° Southeast 500 575 35,000  Level FlightAware
06:39AM 57.0440 29.8340 123° Southeast 501 577 35,000  Level FlightAware
06:40AM 56.9770 30.0170 124° Southeast 502 578 35,000  Level FlightAware
06:41AM 56.9260 30.1560 124° Southeast 504 580 35,000  Level FlightAware
06:42AM 56.8550 30.3500 124° Southeast 506 582 35,000  Level FlightAware
06:42AM 56.8110 30.4690 124° Southeast 506 582 35,000  Level FlightAware
06:43AM 56.7660 30.5920 124° Southeast 506 582 35,000  Level FlightAware
06:44AM 56.6150 30.9430 128° Southeast 499 574 35,000  Level FlightAware
06:45AM 56.5720 31.0440 128° Southeast 499 574 35,000  Level FlightAware
06:46AM 56.5140 31.1780 128° Southeast 499 574 35,000  Level FlightAware
06:47AM 56.3890 31.5380 122° Southeast 503 579 35,000  Level FlightAware
06:48AM 56.3280 31.7070 123° Southeast 503 579 35,000  Level FlightAware
06:49AM 56.2830 31.8300 123° Southeast 502 578 35,000  Level FlightAware
06:49AM 56.2410 31.9450 123° Southeast 502 578 35,000  Level FlightAware
06:50AM 56.1870 32.0940 123° Southeast 502 578 35,000  Level FlightAware
06:51AM 56.1040 32.3100 125° Southeast 495 570 35,000  Level FlightAware
06:52AM 56.0650 32.4080 125° Southeast 494 568 35,000  Level FlightAware
06:52AM 56.0090 32.5500 125° Southeast 496 571 35,000  Level FlightAware
06:53AM 55.9780 32.6280 125° Southeast 495 570 35,000  Level FlightAware
06:54AM 55.9070 32.8080 125° Southeast 499 574 35,000  Level FlightAware
06:54AM 55.8550 32.9360 126° Southeast 495 570 35,000  Level FlightAware
06:55AM 55.7950 33.0580 131° Southeast 491 565 35,000  Level FlightAware
06:56AM 55.7360 33.1850 129° Southeast 491 565 35,000  Level FlightAware
06:56AM 55.7000 33.2610 130° Southeast 490 564 35,000  Level FlightAware
06:56AM 55.6630 33.3370 131° Southeast 490 564 35,000  Level FlightAware
06:57AM 55.5880 33.4900 131° Southeast 488 562 35,000  Level FlightAware
06:58AM 55.5260 33.6180 131° Southeast 491 565 35,000  Level FlightAware
06:59AM 55.4630 33.7460 131° Southeast 495 570 35,000  Level FlightAware
07:00AM 55.3680 33.9430 130° Southeast 496 571 35,000  Level FlightAware
07:01AM 55.2800 34.1280 130° Southeast 488 562 35,000  Level FlightAware
07:01AM 55.2290 34.2330 130° Southeast 481 554 35,000  Level FlightAware
07:02AM 55.1930 34.3070 130° Southeast 477 549 35,000  Level FlightAware
07:02AM 55.1490 34.3970 131° Southeast 477 549 35,000  Level FlightAware
07:03AM 55.0600 34.5760 131° Southeast 486 559 35,000  Level FlightAware
07:04AM 55.0060 34.6820 132° Southeast 486 559 35,000  Level FlightAware
07:04AM 54.9540 34.7870 131° Southeast 490 564 35,000  Level FlightAware
07:05AM 54.9010 34.8960 130° Southeast 489 563 35,000  Level FlightAware
07:06AM 54.8140 35.1350 122° Southeast 509 586 35,000  Level FlightAware
07:07AM 54.7900 35.2350 113° Southeast 519 597 35,000  Level FlightAware
07:07AM 54.7600 35.4090 107° East 528 608 35,000  Level FlightAware
07:08AM 54.7450 35.5540 100° East 534 615 35,000  Level FlightAware
07:09AM 54.7390 35.7250 93° East 539 620 35,000  Level FlightAware
07:10AM 54.7370 36.0250 91° East 542 624 35,000  Level FlightAware
07:10AM 54.7370 36.1540 90° East 544 626 35,000  Level FlightAware
07:11AM 54.7360 36.3330 90° East 547 629 35,000  Level FlightAware
07:12AM 54.7310 36.5560 92° East 541 623 35,000  Level FlightAware
07:12AM 54.7170 36.7120 99° East 533 613 35,000  Level FlightAware
07:14AM 54.6720 36.9750 106° East 525 604 35,000  Level FlightAware
07:15AM 54.6290 37.2130 107° East 524 603 35,000  Level FlightAware
07:16AM 54.5690 37.4530 113° Southeast 514 592 35,000  Level FlightAware
07:16AM 54.5290 37.5970 116° Southeast 516 594 35,000  Level FlightAware
07:17AM 54.4890 37.7350 116° Southeast 516 594 35,000  Level FlightAware
07:18AM 54.4450 37.8900 116° Southeast 508 585 35,000  Level FlightAware
07:18AM 54.4080 38.0230 116° Southeast 503 579 35,000  Level FlightAware
07:19AM 54.3810 38.1160 116° Southeast 504 580 35,000  Level FlightAware
07:19AM 54.3450 38.2560 114° Southeast 511 588 35,000  Level FlightAware
07:20AM 54.3170 38.4120 107° East 521 600 35,000  Level FlightAware
07:21AM 54.2930 38.5720 104° East 522 601 35,000  Level FlightAware
07:21AM 54.2700 38.7140 105° East 522 601 35,000  Level FlightAware
07:22AM 54.2450 38.8720 105° East 521 600 35,000  Level FlightAware
07:23AM 54.2050 39.1460 104° East 524 603 35,000  Level FlightAware
07:24AM 54.1850 39.2860 104° East 524 603 35,000  Level FlightAware
07:24AM 54.1640 39.4320 104° East 523 602 35,000  Level FlightAware
07:25AM 54.1280 39.6760 104° East 521 600 35,000  Level FlightAware
07:26AM 54.0880 39.9420 104° East 523 602 35,000  Level FlightAware
07:27AM 54.0700 40.0620 104° East 523 602 35,000  Level FlightAware
07:28AM 54.0450 40.2280 104° East 522 601 35,000  Level FlightAware
07:28AM 54.0230 40.3690 105° East 522 601 35,000  Level FlightAware
07:29AM 53.9980 40.5280 105° East 521 600 35,000  Level FlightAware
07:30AM 53.9570 40.7910 105° East 520 598 35,000  Level FlightAware
07:31AM 53.9300 40.9650 105° East 519 597 35,000  Level FlightAware
07:31AM 53.9110 41.0850 105° East 519 597 35,000  Level FlightAware
07:32AM 53.8890 41.2220 105° East 521 600 35,000  Level FlightAware
07:32AM 53.8650 41.3730 105° East 518 596 35,000  Level FlightAware
07:33AM 53.8370 41.5440 105° East 514 592 35,000  Level FlightAware
07:34AM 53.8160 41.6770 105° East 513 590 35,000  Level FlightAware
07:34AM 53.7890 41.8370 106° East 514 592 35,000  Level FlightAware
07:35AM 53.7670 41.9710 105° East 516 594 35,000  Level FlightAware
07:36AM 53.7430 42.1180 105° East 512 589 35,000  Level FlightAware
07:36AM 53.7180 42.2670 106° East 511 588 35,000  Level FlightAware
07:37AM 53.6930 42.4110 106° East 514 592 35,000  Level FlightAware
07:38AM 53.6650 42.5800 106° East 515 593 35,000  Level FlightAware
07:38AM 53.6510 42.7040 101° East 521 600 35,000  Level FlightAware
07:39AM 53.6430 42.8860 94° East 525 604 35,000  Level FlightAware
07:39AM 53.6400 43.0070 92° East 524 603 35,000  Level FlightAware
07:40AM 53.6350 43.1650 93° East 523 602 35,000  Level FlightAware
07:41AM 53.6280 43.3470 94° East 521 600 35,000  Level FlightAware
07:41AM 53.6220 43.5240 93° East 519 597 35,000  Level FlightAware
07:42AM 53.6150 43.7160 93° East 522 601 35,000  Level FlightAware
07:43AM 53.6110 43.8380 93° East 524 603 35,000  Level FlightAware
07:46AM 53.4643 44.3859 114° Southeast  Level Estimated
07:46AM 53.5880 44.5340 114° Southeast 524 603 35,000  Level FlightAware
07:46AM 53.5840 44.6670 93° East 522 601 35,000  Level FlightAware
07:47AM 53.5750 44.9470 93° East 522 601 35,000  Level FlightAware
07:48AM 53.5670 45.1040 95° East 520 598 35,000  Level FlightAware
07:49AM 53.5510 45.2300 102° East 515 593 35,000  Level FlightAware
07:49AM 53.5210 45.3780 109° East 509 586 35,000  Level FlightAware
07:50AM 53.4850 45.5250 112° Southeast 510 587 35,000  Level FlightAware
07:50AM 53.4500 45.6700 112° Southeast 509 586 35,000  Level FlightAware
07:51AM 53.4120 45.8210 113° Southeast 508 585 35,000  Level FlightAware
07:52AM 53.3720 45.9800 113° Southeast 507 583 35,000  Level FlightAware
07:52AM 53.3420 46.0980 113° Southeast 506 582 35,000  Level FlightAware
07:53AM 53.2950 46.2820 113° Southeast 505 581 35,000  Level FlightAware
07:54AM 53.2590 46.4240 113° Southeast 505 581 35,000  Level FlightAware
07:55AM 53.2260 46.5490 114° Southeast 506 582 35,000  Level FlightAware
07:55AM 53.2030 46.6390 113° Southeast 507 583 35,000  Level FlightAware
07:56AM 53.1650 46.7820 114° Southeast 507 583 35,000  Level FlightAware
07:56AM 53.1230 46.9410 114° Southeast 508 585 35,000  Level FlightAware
07:57AM 53.0660 47.1560 114° Southeast 508 585 35,000  Level FlightAware
07:58AM 53.0380 47.2630 113° Southeast 506 582 35,000  Level FlightAware
07:58AM 53.0040 47.3880 114° Southeast 507 583 35,000  Level FlightAware
07:59AM 52.9700 47.5120 114° Southeast 508 585 35,000  Level FlightAware
08:00AM 52.9370 47.6360 114° Southeast 510 587 35,000  Level FlightAware
08:00AM 52.9030 47.7590 115° Southeast 508 585 35,000  Level FlightAware
08:01AM 52.8640 47.9020 114° Southeast 505 581 35,000  Level FlightAware
08:02AM 52.8250 48.0410 115° Southeast 501 577 35,000  Level FlightAware
08:02AM 52.7920 48.1610 114° Southeast 500 575 35,000  Level FlightAware
08:03AM 52.7290 48.3860 115° Southeast 502 578 35,000  Level FlightAware
08:04AM 52.7040 48.4750 115° Southeast 502 578 35,000  Level FlightAware
08:04AM 52.6700 48.5940 115° Southeast 503 579 35,000  Level FlightAware
08:05AM 52.6310 48.7330 115° Southeast 503 579 35,000  Level FlightAware
08:05AM 52.5970 48.8540 115° Southeast 503 579 35,000  Level FlightAware
08:06AM 52.5570 48.9930 115° Southeast 504 580 35,000  Level FlightAware
08:07AM 52.5080 49.1660 115° Southeast 505 581 35,000  Level FlightAware
08:08AM 52.4680 49.3020 116° Southeast 504 580 35,000  Level FlightAware
08:08AM 52.4180 49.4760 115° Southeast 504 580 35,000  Level FlightAware
08:09AM 52.3730 49.6280 116° Southeast 502 578 35,000  Level FlightAware
08:10AM 52.3370 49.7490 116° Southeast 501 577 35,000  Level FlightAware
08:10AM 52.3020 49.8690 115° Southeast 500 575 35,000  Level FlightAware
08:11AM 52.2920 49.9020 116° Southeast 500 575 35,000  Level FlightAware
08:11AM 52.2420 50.0680 116° Southeast 500 575 35,000  Level FlightAware
08:12AM 52.1860 50.2550 116° Southeast 500 575 35,000  Level FlightAware
08:13AM 52.1450 50.3630 122° Southeast 496 571 35,000  Level FlightAware
08:13AM 52.1030 50.4510 128° Southeast 495 570 35,000  Level FlightAware
08:14AM 52.0470 50.5470 133° Southeast 492 566 35,000  Level FlightAware
08:14AM 51.9930 50.6210 140° Southeast 489 563 35,000  Level FlightAware
08:15AM 51.9200 50.7060 144° Southeast 490 564 35,000  Level FlightAware
08:16AM 51.8540 50.7860 143° Southeast 493 567 35,000  Level FlightAware
08:16AM 51.7820 50.8680 145° Southeast 492 566 35,000  Level FlightAware
08:17AM 51.7240 50.9310 146° Southeast 490 564 35,000  Level FlightAware
08:18AM 51.6030 51.0620 146° Southeast 487 560 35,000  Level FlightAware
08:19AM 51.4670 51.2050 147° Southeast 486 559 35,000  Level FlightAware
08:20AM 51.3910 51.2850 147° Southeast 487 560 35,000  Level FlightAware
08:21AM 51.3270 51.3520 147° Southeast 487 560 35,000  Level FlightAware
08:21AM 51.2590 51.4230 147° Southeast 488 562 35,000  Level FlightAware
08:22AM 51.2140 51.4700 147° Southeast 488 562 35,000  Level FlightAware
08:22AM 51.1210 51.5910 141° Southeast 491 565 35,000  Level FlightAware
08:23AM 51.0620 51.6980 131° Southeast 494 568 35,000  Level FlightAware
08:24AM 50.9850 51.8530 128° Southeast 494 568 35,000  Level FlightAware
08:25AM 50.9170 51.9850 129° Southeast 491 565 35,000  Level FlightAware
08:25AM 50.8690 52.0750 130° Southeast 490 564 35,000  Level FlightAware
08:26AM 50.8010 52.2070 129° Southeast 490 564 35,000  Level FlightAware
08:27AM 50.7550 52.2950 130° Southeast 492 566 35,000 600 Level FlightAware
08:27AM 50.6970 52.4040 130° Southeast 490 564 35,700 1,140 Climbing FlightAware
08:28AM 50.6460 52.5010 130° Southeast 491 565 36,400 1,080 Climbing FlightAware
08:28AM 50.5960 52.5940 130° Southeast 492 566 37,000 900 Climbing FlightAware
08:29AM 50.5550 52.6720 130° Southeast 495 570 37,400 1,080 Climbing FlightAware
08:30AM 50.4620 52.8430 130° Southeast 493 567 38,600 840 Climbing FlightAware
08:30AM 50.4290 52.9060 129° Southeast 493 567 38,600 240 Level FlightAware
08:31AM 50.3380 53.0730 130° Southeast 490 564 39,000 240 Climbing FlightAware
08:32AM 50.2920 53.1580 130° Southeast 490 564 39,000  Level FlightAware
08:32AM 50.2540 53.2270 131° Southeast 490 564 39,000  Level FlightAware
08:33AM 50.1910 53.3450 130° Southeast 490 564 39,000  Level FlightAware
08:34AM 50.1320 53.4560 130° Southeast 490 564 39,000  Level FlightAware
08:35AM 50.1020 53.5110 130° Southeast 490 564 39,000  Level FlightAware
08:35AM 50.0570 53.5940 130° Southeast 490 564 39,000  Level FlightAware
08:36AM 49.9670 53.7610 130° Southeast 490 564 39,000  Level FlightAware
08:37AM 49.9220 53.8440 130° Southeast 490 564 39,000  Level FlightAware
08:38AM 49.8780 53.9260 130° Southeast 490 564 39,000  Level FlightAware
08:38AM 49.8470 53.9840 130° Southeast 490 564 39,000  Level FlightAware
08:39AM 49.7870 54.0930 130° Southeast 490 564 39,000  Level FlightAware
08:39AM 49.7420 54.1780 129° Southeast 490 564 39,000  Level FlightAware
08:40AM 49.6820 54.2870 130° Southeast 490 564 39,000  Level FlightAware
08:41AM 49.6370 54.3690 130° Southeast 490 564 39,000  Level FlightAware
08:41AM 49.5950 54.4470 130° Southeast 490 564 39,000  Level FlightAware
08:42AM 49.5490 54.5310 130° Southeast 490 564 39,000  Level FlightAware
08:45AM 49.3704 54.9639 122° Southeast  Level Estimated
08:46AM 49.3004 55.1318 123° Southeast  Level Estimated
08:47AM 49.2301 55.2991 123° Southeast  Level Estimated
08:48AM 49.1596 55.4660 123° Southeast  Level Estimated
08:49AM 49.0888 55.6324 123° Southeast  Level Estimated
08:50AM 49.0178 55.7983 123° Southeast  Level Estimated
08:51AM 48.9466 55.9638 123° Southeast  Level Estimated
08:52AM 48.8751 56.1287 123° Southeast  Level Estimated
08:53AM 48.8034 56.2933 123° Southeast  Level Estimated
08:54AM 48.7315 56.4573 124° Southeast  Level Estimated
08:55AM 48.6594 56.6209 124° Southeast  Level Estimated
08:56AM 48.5870 56.7840 124° Southeast  Level Estimated
08:57AM 48.5143 56.9466 124° Southeast  Level Estimated
08:58AM 48.4415 57.1087 124° Southeast  Level Estimated
08:59AM 48.3684 57.2705 124° Southeast  Level Estimated
09:00AM 48.2951 57.4317 124° Southeast  Level Estimated
09:01AM 48.2216 57.5925 124° Southeast  Level Estimated
09:02AM 48.1478 57.7528 125° Southeast  Level Estimated
09:03AM 48.0738 57.9126 125° Southeast  Level Estimated
09:04AM 47.9996 58.0720 125° Southeast  Level Estimated
09:05AM 47.9252 58.2309 125° Southeast  Level Estimated
09:06AM 47.8506 58.3894 125° Southeast  Level Estimated
09:07AM 47.7757 58.5474 125° Southeast  Level Estimated
09:08AM 47.7007 58.7050 125° Southeast  Level Estimated
09:09AM 47.6254 58.8621 125° Southeast  Level Estimated
09:10AM 47.5499 59.0188 125° Southeast  Level Estimated
09:11AM 47.4742 59.1750 126° Southeast  Level Estimated
09:12AM 47.3983 59.3307 126° Southeast  Level Estimated
09:13AM 47.3221 59.4860 126° Southeast  Level Estimated
09:14AM 47.2458 59.6409 126° Southeast  Level Estimated
09:15AM 47.1692 59.7953 126° Southeast  Level Estimated
09:16AM 47.0925 59.9493 126° Southeast  Level Estimated
09:17AM 47.0155 60.1028 126° Southeast  Level Estimated
09:18AM 46.9383 60.2559 126° Southeast  Level Estimated
09:19AM 46.8610 60.4085 127° Southeast  Level Estimated
09:20AM 46.7834 60.5607 127° Southeast  Level Estimated
09:21AM 46.7056 60.7125 127° Southeast  Level Estimated
09:22AM 46.6277 60.8638 127° Southeast  Level Estimated
09:23AM 46.5495 61.0147 127° Southeast  Level Estimated
09:24AM 46.4711 61.1651 127° Southeast  Level Estimated
09:25AM 46.3926 61.3152 127° Southeast  Level Estimated
09:26AM 46.3138 61.4647 127° Southeast  Level Estimated
09:27AM 46.2348 61.6139 127° Southeast  Level Estimated
09:28AM 46.1557 61.7626 128° Southeast  Level Estimated
09:29AM 46.0763 61.9109 128° Southeast  Level Estimated
09:30AM 45.9968 62.0588 128° Southeast  Level Estimated
09:31AM 45.9171 62.2063 128° Southeast  Level Estimated
09:32AM 45.8372 62.3533 128° Southeast  Level Estimated
09:33AM 45.7571 62.4999 128° Southeast  Level Estimated
09:34AM 45.6768 62.6461 128° Southeast  Level Estimated
09:35AM 45.5963 62.7918 128° Southeast  Level Estimated
09:36AM 45.5157 62.9372 128° Southeast  Level Estimated
09:37AM 45.4348 63.0821 128° Southeast  Level Estimated
09:38AM 45.3538 63.2266 129° Southeast  Level Estimated
09:39AM 45.2726 63.3707 129° Southeast  Level Estimated
09:40AM 45.1912 63.5144 129° Southeast  Level Estimated
09:41AM 45.1096 63.6577 129° Southeast  Level Estimated
09:42AM 45.0279 63.8006 129° Southeast  Level Estimated
09:43AM 44.9459 63.9430 129° Southeast  Level Estimated
09:44AM 44.8638 64.0851 129° Southeast  Level Estimated
09:45AM 44.7816 64.2267 129° Southeast  Level Estimated
09:46AM 44.6991 64.3680 129° Southeast  Level Estimated
09:47AM 44.6165 64.5088 129° Southeast  Level Estimated
09:48AM 44.5337 64.6493 130° Southeast  Level Estimated
09:49AM 44.4507 64.7893 130° Southeast  Level Estimated
09:50AM 44.3676 64.9289 130° Southeast  Level Estimated
09:51AM 44.2843 65.0682 130° Southeast  Level Estimated
09:52AM 44.2008 65.2070 130° Southeast  Level Estimated
09:53AM 44.1171 65.3455 130° Southeast  Level Estimated
09:54AM 44.0333 65.4836 130° Southeast  Level Estimated
09:55AM 43.9494 65.6213 130° Southeast  Level Estimated
09:56AM 43.8652 65.7586 130° Southeast  Level Estimated
09:57AM 43.7809 65.8954 130° Southeast  Level Estimated
09:58AM 43.6964 66.0320 131° Southeast  Level Estimated
09:59AM 43.6118 66.1681 131° Southeast  Level Estimated
10:00AM 43.5270 66.3038 131° Southeast  Level Estimated
10:01AM 43.4421 66.4392 131° Southeast  Level Estimated
10:02AM 43.3570 66.5742 131° Southeast  Level Estimated
10:02AM 41.0770 64.9820 131° Southeast 511 588 39,000  Level FlightAware
10:02AM 41.0290 65.0070 159° South 512 589 39,000  Level FlightAware
10:03AM 43.2717 66.7088 131° Southeast  Level Estimated
10:03AM 40.9140 65.0680 158° South 514 592 39,000  Level FlightAware
10:04AM 40.7840 65.1360 158° South 513 590 39,000  Level FlightAware
10:05AM 40.6950 65.1830 158° South 515 593 39,000  Level FlightAware
10:05AM 40.6090 65.2290 158° South 516 594 39,000  Level FlightAware
10:06AM 40.5300 65.2700 158° South 514 592 39,000  Level FlightAware
10:06AM 40.4410 65.3170 158° South 515 593 39,000  Level FlightAware
10:07AM 40.3670 65.3560 158° South 516 594 39,000  Level FlightAware
10:07AM 40.3090 65.3850 159° South 510 587 39,000  Level FlightAware
10:08AM 40.1850 65.4500 158° South 514 592 39,000  Level FlightAware
10:09AM 40.0970 65.4950 159° South 517 595 39,000  Level FlightAware
10:10AM 40.0160 65.5370 158° South 517 595 39,000  Level FlightAware
10:10AM 39.9220 65.5850 159° South 517 595 39,000  Level FlightAware
10:11AM 39.8260 65.6340 159° South 512 589 39,000  Level FlightAware
10:12AM 39.7770 65.6590 159° South 512 589 39,000  Level FlightAware
10:12AM 39.6670 65.7150 159° South 519 597 39,000  Level FlightAware
10:13AM 39.5580 65.7700 159° South 517 595 39,000  Level FlightAware
10:14AM 39.4710 65.8140 159° South 517 595 39,000  Level FlightAware
10:15AM 39.3600 65.8700 159° South 513 590 39,000  Level FlightAware
10:15AM 39.2560 65.9220 159° South 519 597 39,000  Level FlightAware
10:16AM 39.1760 65.9620 159° South 519 597 39,000  Level FlightAware
10:16AM 39.1170 65.9930 158° South 519 597 39,000  Level FlightAware
10:18AM 38.9970 66.0550 158° South 519 597 39,000  Level FlightAware
10:18AM 38.9290 66.0900 158° South 519 597 39,000  Level FlightAware
10:19AM 38.8380 66.1370 158° South 519 597 39,000  Level FlightAware
10:20AM 38.7700 66.1720 158° South 519 597 39,000  Level FlightAware
10:20AM 38.7000 66.2090 158° South 519 597 39,000  Level FlightAware
10:21AM 38.6530 66.2330 158° South 519 597 39,000  Level FlightAware
10:21AM 38.5810 66.2700 158° South 519 597 39,000  Level FlightAware
10:22AM 38.4880 66.3180 158° South 519 597 39,000  Level FlightAware
10:23AM 38.4200 66.3530 158° South 519 597 39,000  Level FlightAware
10:23AM 38.3270 66.4010 158° South 519 597 39,000  Level FlightAware
10:24AM 38.2590 66.4360 158° South 519 597 39,000  Level FlightAware
10:25AM 38.1910 66.4710 158° South 519 597 39,000  Level FlightAware
10:25AM 38.1230 66.5060 158° South 519 597 39,000  Level FlightAware
10:26AM 38.0550 66.5410 158° South 519 597 39,000  Level FlightAware
10:29AM 37.8425 66.8877 128° Southeast  Level Estimated
10:30AM 37.7625 67.0173 128° Southeast  Level Estimated
10:31AM 37.6824 67.1465 128° Southeast  Level Estimated
10:32AM 37.6022 67.2754 128° Southeast  Level Estimated
10:33AM 37.5219 67.4041 128° Southeast  Level Estimated
10:34AM 37.4413 67.5325 128° Southeast  Level Estimated
10:35AM 37.3607 67.6606 128° Southeast  Level Estimated
10:36AM 37.2799 67.7885 128° Southeast  Level Estimated
10:37AM 37.1990 67.9160 129° Southeast  Level Estimated
10:38AM 37.1179 68.0433 129° Southeast  Level Estimated
10:39AM 37.0367 68.1703 129° Southeast  Level Estimated
10:40AM 36.9554 68.2971 129° Southeast  Level Estimated
10:41AM 36.8739 68.4236 129° Southeast  Level Estimated
10:42AM 36.7923 68.5498 129° Southeast  Level Estimated
10:43AM 36.7106 68.6757 129° Southeast  Level Estimated
10:44AM 36.6287 68.8014 129° Southeast  Level Estimated
10:45AM 36.5467 68.9268 129° Southeast  Level Estimated
10:46AM 36.4646 69.0520 129° Southeast  Level Estimated
10:47AM 36.3823 69.1768 129° Southeast  Level Estimated
10:48AM 36.2999 69.3015 129° Southeast  Level Estimated
10:49AM 36.2174 69.4258 129° Southeast  Level Estimated
10:50AM 36.1348 69.5499 129° Southeast  Level Estimated
10:51AM 36.0520 69.6737 130° Southeast  Level Estimated
10:52AM 35.9691 69.7973 130° Southeast  Level Estimated
10:53AM 35.8860 69.9206 130° Southeast  Level Estimated
10:54AM 35.8029 70.0436 130° Southeast  Level Estimated
10:55AM 35.7196 70.1664 130° Southeast  Level Estimated
10:56AM 35.6362 70.2890 130° Southeast  Level Estimated
10:57AM 35.5527 70.4112 130° Southeast  Level Estimated
10:58AM 35.4690 70.5333 130° Southeast  Level Estimated
10:59AM 35.3852 70.6550 130° Southeast  Level Estimated
10:59AM 33.5780 69.7370 130° Southeast 523 602 39,000  Level FlightAware
11:00AM 35.3013 70.7766 130° Southeast  Level Estimated
11:00AM 33.4940 69.7900 152° Southeast 527 606 39,000  Level FlightAware
11:00AM 33.4200 69.8370 152° Southeast 529 609 39,000  Level FlightAware
11:01AM 33.3650 69.8720 152° Southeast 526 605 39,000  Level FlightAware
11:02AM 33.2970 69.9160 152° Southeast 526 605 39,000  Level FlightAware
11:02AM 33.2090 69.9750 151° Southeast 526 605 39,000  Level FlightAware
11:03AM 33.1100 70.0330 154° Southeast 527 606 39,000  Level FlightAware
11:04AM 33.0280 70.0890 150° Southeast 532 612 39,000  Level FlightAware
11:04AM 32.9510 70.1450 149° Southeast 532 612 39,000  Level FlightAware
11:05AM 32.8680 70.2050 149° Southeast 530 610 39,000  Level FlightAware
11:05AM 32.7930 70.2590 149° Southeast 533 613 39,000  Level FlightAware
11:07AM 32.6270 70.3770 149° Southeast 530 610 39,000  Level FlightAware
11:07AM 32.5510 70.4320 149° Southeast 529 609 39,000  Level FlightAware
11:08AM 32.4800 70.4830 149° Southeast 529 609 39,000  Level FlightAware
11:08AM 32.4120 70.5320 149° Southeast 530 610 39,000  Level FlightAware
11:09AM 32.3360 70.5870 149° Southeast 528 608 39,000  Level FlightAware
11:10AM 32.2510 70.6470 149° Southeast 524 603 39,000  Level FlightAware
11:10AM 32.1830 70.6950 149° Southeast 522 601 39,000  Level FlightAware
11:11AM 32.1160 70.7420 149° Southeast 518 596 39,000  Level FlightAware
11:12AM 32.0050 70.8310 146° Southeast 521 600 39,000  Level FlightAware
11:12AM 31.9450 70.8950 138° Southeast 526 605 39,000  Level FlightAware
11:13AM 31.8840 70.9780 131° Southeast 531 611 39,000  Level FlightAware
11:13AM 31.8380 71.0560 125° Southeast 537 618 39,000  Level FlightAware
11:14AM 31.7840 71.1710 119° Southeast 541 623 39,000  Level FlightAware
11:15AM 31.7360 71.2770 118° Southeast 542 624 39,000  Level FlightAware
11:16AM 31.6880 71.3830 118° Southeast 541 623 39,000  Level FlightAware
11:16AM 31.6490 71.4700 118° Southeast 538 619 39,000  Level FlightAware
11:17AM 31.5990 71.5790 118° Southeast 535 616 39,000  Level FlightAware
11:18AM 31.5320 71.7270 118° Southeast 536 617 39,000  Level FlightAware
11:18AM 31.4900 71.8170 119° Southeast 535 616 39,000  Level FlightAware
11:19AM 31.4580 71.8870 118° Southeast 534 615 39,000  Level FlightAware
11:20AM 31.4000 72.0120 119° Southeast 533 613 39,000  Level FlightAware
11:20AM 31.3670 72.0880 117° Southeast 535 616 39,000  Level FlightAware
11:21AM 31.3310 72.2000 111° Southeast 536 617 39,000  Level FlightAware
11:21AM 31.3070 72.3150 104° East 537 618 39,000  Level FlightAware
11:22AM 31.2970 72.4180 96° East 539 620 39,000  Level FlightAware
11:23AM 31.3030 72.6040 88° East 539 620 39,000  Level FlightAware
11:24AM 31.3130 72.6860 82° East 538 619 39,000  Level FlightAware
11:24AM 31.3270 72.8010 82° East 539 620 39,000  Level FlightAware
11:25AM 31.3400 72.9130 82° East 539 620 39,000  Level FlightAware
11:26AM 31.3520 73.0170 82° East 539 620 39,000  Level FlightAware
11:26AM 31.3610 73.1120 84° East 539 620 39,000  Level FlightAware
11:27AM 31.3710 73.2360 85° East 539 620 39,000  Level FlightAware
11:27AM 31.3800 73.3390 84° East 539 620 39,000  Level FlightAware
11:28AM 31.3900 73.4580 84° East 540 621 39,000  Level FlightAware
11:29AM 31.3990 73.5630 84° East 540 621 39,000  Level FlightAware
11:29AM 31.4070 73.6540 84° East 540 621 39,000  Level FlightAware
11:30AM 31.4160 73.7640 84° East 541 623 39,000  Level FlightAware
11:30AM 31.4290 73.8680 82° East 540 621 39,000  Level FlightAware
11:31AM 31.4350 73.9800 86° East 544 626 39,000  Level FlightAware
11:32AM 31.4310 74.0790 93° East 544 626 39,000  Level FlightAware
11:32AM 31.4170 74.1800 99° East 543 625 39,000  Level FlightAware
11:33AM 31.3840 74.3490 103° East 544 626 39,000  Level FlightAware
11:34AM 31.3690 74.4370 101° East 543 625 39,000  Level FlightAware
11:35AM 31.3270 74.6430 103° East 543 625 39,000  Level FlightAware
11:35AM 31.3030 74.7390 106° East 544 626 39,000  Level FlightAware
11:37AM 31.2600 74.9110 106° East 544 626 39,000  Level FlightAware
11:37AM 31.2380 75.0020 106° East 545 627 39,000  Level FlightAware
11:38AM 31.2070 75.1230 107° East 547 629 39,000  Level FlightAware
11:38AM 31.1880 75.2000 106° East 547 629 39,000  Level FlightAware
11:39AM 31.1620 75.3040 106° East 547 629 39,000  Level FlightAware
11:39AM 31.1330 75.4160 107° East 547 629 39,000  Level FlightAware
11:40AM 31.1000 75.5320 108° East 543 625 39,000  Level FlightAware
11:41AM 31.0600 75.6510 111° Southeast 544 626 39,000  Level FlightAware
11:42AM 31.0210 75.7670 111° Southeast 544 626 39,000  Level FlightAware
11:42AM 30.9840 75.8760 112° Southeast 544 626 39,000  Level FlightAware
11:43AM 30.9440 75.9970 111° Southeast 542 624 39,000  Level FlightAware
11:44AM 30.9150 76.0820 112° Southeast 542 624 39,000  Level FlightAware
11:44AM 30.8850 76.1700 112° Southeast 542 624 39,000  Level FlightAware
11:45AM 30.8560 76.2560 111° Southeast 544 626 39,000  Level FlightAware
11:46AM 30.8000 76.4190 112° Southeast 545 627 39,000  Level FlightAware
11:46AM 30.7740 76.4960 111° Southeast 545 627 39,000  Level FlightAware
11:47AM 30.7390 76.5990 112° Southeast 544 626 39,000  Level FlightAware
11:47AM 30.7090 76.6860 112° Southeast 544 626 39,000  Level FlightAware
11:48AM 30.6740 76.7700 116° Southeast 539 620 39,000  Level FlightAware
11:48AM 30.6410 76.8350 121° Southeast 537 618 39,000  Level FlightAware
11:49AM 30.5470 76.9800 127° Southeast 533 613 39,000  Level FlightAware
11:50AM 30.4490 77.1160 130° Southeast 521 600 39,000  Level FlightAware
11:51AM 30.3270 77.2300 141° Southeast 510 587 39,000  Level FlightAware
11:52AM 30.2840 77.2610 148° Southeast 505 581 39,000  Level FlightAware
11:52AM 30.2010 77.3120 152° Southeast 501 577 39,000  Level FlightAware
11:54AM 30.0530 77.4010 152° Southeast 502 578 39,000  Level FlightAware
11:55AM 29.9440 77.4800 148° Southeast 519 597 39,000  Level FlightAware
11:55AM 29.8830 77.5360 141° Southeast 517 595 39,000  Level FlightAware
11:56AM 29.8060 77.6060 142° Southeast 514 592 39,000  Level FlightAware
11:56AM 29.7390 77.6660 142° Southeast 515 593 39,000  Level FlightAware
11:57AM 29.6690 77.7270 143° Southeast 516 594 39,000  Level FlightAware
11:58AM 29.6030 77.7870 142° Southeast 516 594 39,000  Level FlightAware
11:58AM 29.5310 77.8500 143° Southeast 518 596 39,000  Level FlightAware
11:59AM 29.4170 77.9510 142° Southeast 517 595 39,000  Level FlightAware
12:00PM 29.2860 78.0670 142° Southeast 511 588 39,000  Level FlightAware
12:01PM 29.2250 78.1200 143° Southeast 512 589 39,000  Level FlightAware
12:01PM 29.1620 78.1760 142° Southeast 512 589 39,000  Level FlightAware
12:03PM 29.0450 78.2790 142° Southeast 513 590 39,000  Level FlightAware
12:03PM 28.9750 78.3390 143° Southeast 515 593 39,000  Level FlightAware
12:04PM 28.9060 78.4000 142° Southeast 512 589 39,000  Level FlightAware
12:04PM 28.8470 78.4510 143° Southeast 510 587 39,000  Level FlightAware
12:05PM 28.7820 78.5080 142° Southeast 509 586 39,000  Level FlightAware
12:06PM 28.6590 78.6150 143° Southeast 508 585 39,000  Level FlightAware
12:06PM 28.5950 78.6700 143° Southeast 508 585 39,000  Level FlightAware
12:07PM 28.5270 78.7290 143° Southeast 508 585 39,000  Level FlightAware
12:08PM 28.4620 78.7880 141° Southeast 509 586 39,000  Level FlightAware
12:08PM 28.4000 78.8560 136° Southeast 516 594 39,000  Level FlightAware
12:09PM 28.3530 78.9110 134° Southeast 519 597 39,000  Level FlightAware
12:10PM 28.2990 78.9730 135° Southeast 519 597 39,000  Level FlightAware
12:10PM 28.2420 79.0390 134° Southeast 519 597 39,000  Level FlightAware
12:11PM 28.2070 79.0810 133° Southeast 519 597 39,000  Level FlightAware
12:12PM 28.1150 79.1890 134° Southeast 519 597 39,000  Level FlightAware
12:12PM 28.0620 79.2510 134° Southeast 519 597 39,000  Level FlightAware
12:13PM 28.0100 79.3120 134° Southeast 519 597 39,000  Level FlightAware
12:14PM 27.9570 79.3740 134° Southeast 519 597 39,000  Level FlightAware
12:14PM 27.9050 79.4350 134° Southeast 519 597 39,000  Level FlightAware
12:15PM 27.8540 79.4950 134° Southeast 519 597 39,000  Level FlightAware
12:16PM 27.7500 79.6160 134° Southeast 519 597 39,000  Level FlightAware
12:17PM 27.6990 79.6760 134° Southeast 519 597 39,000  Level FlightAware
12:17PM 27.6480 79.7360 134° Southeast 519 597 39,000  Level FlightAware
12:18PM 27.6140 79.7750 135° Southeast 519 597 39,000  Level FlightAware
12:18PM 27.5630 79.8350 134° Southeast 519 597 39,000  Level FlightAware
12:19PM 27.5120 79.8950 134° Southeast 519 597 39,000  Level FlightAware
12:19PM 27.4610 79.9540 134° Southeast 519 597 39,000  Level FlightAware
12:23PM 27.1739 80.2820 134° Southeast  Level Estimated
12:24PM 27.0826 80.3857 135° Southeast  Level Estimated
12:25PM 26.9912 80.4893 135° Southeast  Level Estimated
12:26PM 26.8998 80.5928 135° Southeast  Level Estimated
12:27PM 26.8083 80.6960 135° Southeast  Level Estimated
12:28PM 26.7167 80.7991 135° Southeast  Level Estimated
12:29PM 26.6250 80.9021 135° Southeast  Level Estimated
12:30PM 26.5333 81.0048 135° Southeast  Level Estimated
12:31PM 26.4414 81.1074 135° Southeast  Level Estimated
12:32PM 26.3496 81.2099 135° Southeast  Level Estimated
12:33PM 26.2576 81.3122 135° Southeast  Level Estimated
12:34PM 26.1656 81.4143 135° Southeast  Level Estimated
12:35PM 26.0734 81.5162 135° Southeast  Level Estimated
12:36PM 25.9813 81.6180 135° Southeast  Level Estimated
12:37PM 25.8890 81.7196 135° Southeast  Level Estimated
12:38PM 25.7967 81.8211 135° Southeast  Level Estimated
12:39PM 25.7043 81.9224 135° Southeast  Level Estimated
12:40PM 25.6118 82.0236 135° Southeast  Level Estimated
12:41PM 25.5193 82.1246 135° Southeast  Level Estimated
12:42PM 25.4267 82.2254 135° Southeast  Level Estimated
12:43PM 25.3340 82.3261 136° Southeast  Level Estimated
12:44PM 25.2413 82.4267 136° Southeast  Level Estimated
12:45PM 25.1485 82.5270 136° Southeast  Level Estimated
12:46PM 25.0556 82.6273 136° Southeast  Level Estimated
12:47PM 24.9627 82.7274 136° Southeast  Level Estimated
12:48PM 24.8697 82.8273 136° Southeast  Level Estimated
12:49PM 24.7766 82.9271 136° Southeast  Level Estimated
12:50PM 24.6835 83.0267 136° Southeast  Level Estimated
12:51PM 24.5903 83.1262 136° Southeast  Level Estimated
12:52PM 24.4970 83.2255 136° Southeast  Level Estimated
12:53PM 24.4036 83.3247 136° Southeast  Level Estimated
12:54PM 24.3102 83.4237 136° Southeast  Level Estimated
12:55PM 24.2168 83.5226 136° Southeast  Level Estimated
12:55PM 24.0610 84.6400 136° Southeast 507 583 39,000  Level FlightAware
12:56PM 24.1232 83.6214 136° Southeast  Level Estimated
12:57PM 23.9540 84.7730 131° Southeast 506 582 39,000  Level FlightAware
12:57PM 23.9030 84.8360 132° Southeast 505 581 39,000  Level FlightAware
12:58PM 23.8550 84.8970 131° Southeast 505 581 39,000  Level FlightAware
12:58PM 23.7790 84.9780 136° Southeast 489 563 39,000  Level FlightAware
12:59PM 23.7100 85.0350 143° Southeast 490 564 39,000  Level FlightAware
01:00PM 23.6500 85.0860 142° Southeast 490 564 39,000  Level FlightAware
01:00PM 23.5920 85.1340 143° Southeast 489 563 39,000  Level FlightAware
01:01PM 23.5270 85.1880 143° Southeast 487 560 39,000  Level FlightAware
01:01PM 23.4760 85.2300 143° Southeast 485 558 39,000  Level FlightAware
01:02PM 23.4010 85.2930 142° Southeast 483 556 39,000  Level FlightAware
01:02PM 23.3650 85.3240 142° Southeast 483 556 39,000  Level FlightAware
01:03PM 23.4390 85.2610 322° Northwest 483 556 39,000  Level FlightAware
01:04PM 23.3820 85.3100 142° Southeast 483 556 39,000  Level FlightAware
01:04PM 23.3280 85.3560 142° Southeast 483 556 39,000  Level FlightAware
01:05PM 23.0480 85.5860 143° Southeast 484 557 39,000  Level FlightAware
01:06PM 23.0120 85.6170 142° Southeast 484 557 39,000  Level FlightAware
01:06PM 22.9570 85.6640 142° Southeast 484 557 39,000  Level FlightAware
01:07PM 22.8570 85.7410 145° Southeast 483 556 39,000  Level FlightAware
01:08PM 22.7900 85.7960 143° Southeast 483 556 39,000  Level FlightAware
01:08PM 22.7060 85.8660 142° Southeast 486 559 39,000 60 Level FlightAware
01:09PM 22.5970 85.9540 143° Southeast 489 563 39,200 300 Climbing FlightAware
01:10PM 22.4930 86.0400 143° Southeast 489 563 39,700 540 Climbing FlightAware
01:11PM 22.4180 86.1010 143° Southeast 489 563 40,100 540 Climbing FlightAware
01:12PM 22.3530 86.1540 143° Southeast 477 549 40,400 540 Climbing FlightAware
01:12PM 22.2820 86.2120 143° Southeast 472 543 40,800 480 Climbing FlightAware
01:13PM 22.2250 86.2580 143° Southeast 469 540 41,000 120 Climbing FlightAware
01:14PM 22.1540 86.3150 143° Southeast 466 536 41,000  Level FlightAware
01:14PM 22.1060 86.3540 143° Southeast 468 539 41,000  Level FlightAware
01:15PM 22.0360 86.4110 143° Southeast 469 540 41,000  Level FlightAware
01:15PM 21.9630 86.4710 143° Southeast 471 542 41,000  Level FlightAware
01:17PM 21.8560 86.5570 143° Southeast 470 541 41,000  Level FlightAware
01:17PM 21.7560 86.6370 143° Southeast 470 541 41,000  Level FlightAware
01:18PM 21.6890 86.6910 143° Southeast 472 543 41,000  Level FlightAware
01:19PM 21.6270 86.7410 143° Southeast 472 543 41,000  Level FlightAware
01:19PM 21.5650 86.7900 144° Southeast 472 543 41,000  Level FlightAware
01:20PM 21.5090 86.8350 143° Southeast 471 542 41,000  Level FlightAware
01:21PM 21.4310 86.8990 143° Southeast 470 541 41,000  Level FlightAware
01:21PM 21.3750 86.9430 144° Southeast 470 541 41,000  Level FlightAware
01:22PM 21.3060 86.9990 143° Southeast 470 541 41,000  Level FlightAware
01:22PM 21.2420 87.0500 143° Southeast 470 541 41,000  Level FlightAware
01:23PM 21.1840 87.0950 144° Southeast 477 549 41,000  Level FlightAware
01:24PM 21.1210 87.1460 143° Southeast 477 549 41,000  Level FlightAware
01:24PM 21.0420 87.2090 143° Southeast 478 550 41,000  Level FlightAware
01:25PM 20.9350 87.2930 144° Southeast 478 550 41,000  Level FlightAware
01:26PM 20.8340 87.3740 143° Southeast 479 551 41,000  Level FlightAware
01:27PM 20.7200 87.4650 143° Southeast 481 554 41,000  Level FlightAware
01:28PM 20.6920 87.4870 144° Southeast 481 554 41,000  Level FlightAware
01:29PM 20.5790 87.5760 144° Southeast 471 542 41,000  Level FlightAware
01:30PM 20.4760 87.6570 144° Southeast 477 549 41,000  Level FlightAware
01:30PM 20.4060 87.7120 144° Southeast 477 549 41,000  Level FlightAware
01:31PM 20.3500 87.7570 143° Southeast 476 548 41,000  Level FlightAware
01:31PM 20.2750 87.8150 144° Southeast 476 548 41,000  Level FlightAware
01:32PM 20.1760 87.8930 144° Southeast 474 545 41,000  Level FlightAware
01:33PM 20.1510 87.9120 144° Southeast 471 542 41,000  Level FlightAware
01:33PM 20.0660 87.9790 143° Southeast 466 536 41,000  Level FlightAware
01:34PM 19.9730 88.0520 144° Southeast 466 536 41,000  Level FlightAware
01:35PM 19.9170 88.0970 143° Southeast 466 536 41,000  Level FlightAware
01:36PM 19.8630 88.1400 143° Southeast 466 536 41,000  Level FlightAware
01:37PM 19.7730 88.2120 143° Southeast 466 536 41,000  Level FlightAware
01:37PM 19.7380 88.2400 143° Southeast 466 536 41,000  Level FlightAware
01:38PM 19.6680 88.2960 143° Southeast 466 536 41,000  Level FlightAware
01:38PM 19.6320 88.3250 143° Southeast 466 536 41,000  Level FlightAware
01:39PM 19.4690 88.4450 145° Southeast 469 540 41,000  Level FlightAware
01:40PM 19.4280 88.4760 145° Southeast 467 537 41,000  Level FlightAware
01:40PM 19.3520 88.5370 143° Southeast 467 537 41,000  Level FlightAware
01:41PM 19.2970 88.5800 144° Southeast 467 537 41,000  Level FlightAware
01:42PM 19.2470 88.6200 143° Southeast 467 537 41,000  Level FlightAware
01:42PM 19.1950 88.6620 143° Southeast 467 537 41,000  Level FlightAware
01:43PM 19.1390 88.7070 143° Southeast 467 537 41,000  Level FlightAware
01:43PM 19.1040 88.7350 143° Southeast 467 537 41,000  Level FlightAware
01:44PM 19.0480 88.7790 143° Southeast 467 537 41,000  Level FlightAware
01:45PM 18.9750 88.8370 143° Southeast 467 537 41,000  Level FlightAware
01:46PM 18.8840 88.9100 143° Southeast 467 537 41,000  Level FlightAware
01:46PM 18.8290 88.9530 143° Southeast 467 537 41,000  Level FlightAware
01:47PM 18.7790 88.9930 143° Southeast 467 537 41,000  Level FlightAware
01:47PM 18.7270 89.0350 143° Southeast 467 537 41,000  Level FlightAware
01:48PM 18.6550 89.0920 143° Southeast 467 537 41,000  Level FlightAware
01:49PM 18.6020 89.1340 143° Southeast 467 537 41,000  Level FlightAware
01:49PM 18.5650 89.1630 143° Southeast 467 537 41,000  Level FlightAware
01:52PM 18.3538 89.3624 138° Southeast  Level Estimated
01:53PM 18.2570 89.4536 138° Southeast  Level Estimated
01:54PM 18.1602 89.5447 138° Southeast  Level Estimated
01:55PM 18.0633 89.6356 138° Southeast  Level Estimated
01:56PM 17.9663 89.7265 138° Southeast  Level Estimated
01:57PM 17.8694 89.8173 138° Southeast  Level Estimated
01:58PM 17.7724 89.9080 138° Southeast  Level Estimated
01:59PM 17.6753 89.9985 138° Southeast  Level Estimated
02:00PM 17.5782 90.0890 138° Southeast  Level Estimated
02:01PM 17.4811 90.1794 138° Southeast  Level Estimated
02:02PM 17.3839 90.2697 138° Southeast  Level Estimated
02:03PM 17.2866 90.3599 138° Southeast  Level Estimated
02:04PM 17.1894 90.4500 138° Southeast  Level Estimated
02:05PM 17.0921 90.5399 139° Southeast  Level Estimated
02:06PM 16.9947 90.6299 139° Southeast  Level Estimated
02:07PM 16.8974 90.7197 139° Southeast  Level Estimated
02:08PM 16.7999 90.8094 139° Southeast  Level Estimated
02:09PM 16.7025 90.8990 139° Southeast  Level Estimated
02:10PM 16.6050 90.9886 139° Southeast  Level Estimated
02:11PM 16.5075 91.0780 139° Southeast  Level Estimated
02:12PM 16.4099 91.1674 139° Southeast  Level Estimated
02:13PM 16.3123 91.2566 139° Southeast  Level Estimated
02:14PM 16.2146 91.3458 139° Southeast  Level Estimated
02:15PM 16.1169 91.4349 139° Southeast  Level Estimated
02:16PM 16.0192 91.5239 139° Southeast  Level Estimated
02:17PM 15.9215 91.6128 139° Southeast  Level Estimated
02:18PM 15.8237 91.7016 139° Southeast  Level Estimated
02:19PM 15.7259 91.7904 139° Southeast  Level Estimated
02:20PM 15.6280 91.8790 139° Southeast  Level Estimated
02:21PM 15.5301 91.9676 139° Southeast  Level Estimated
02:22PM 15.4321 92.0561 139° Southeast  Level Estimated
02:23PM 15.3342 92.1445 139° Southeast  Level Estimated
02:24PM 15.2362 92.2328 139° Southeast  Level Estimated
02:25PM 15.1381 92.3211 139° Southeast  Level Estimated
02:26PM 15.0400 92.4092 139° Southeast  Level Estimated
02:27PM 14.9419 92.4973 139° Southeast  Level Estimated
02:28PM 14.8438 92.5853 139° Southeast  Level Estimated
02:29PM 14.7456 92.6732 139° Southeast  Level Estimated
02:30PM 14.6474 92.7610 139° Southeast  Level Estimated
02:31PM 14.5492 92.8488 139° Southeast  Level Estimated
02:32PM 14.4509 92.9365 139° Southeast  Level Estimated
02:33PM 14.3526 93.0241 139° Southeast  Level Estimated
02:34PM 14.2542 93.1116 139° Southeast  Level Estimated
02:35PM 14.1559 93.1990 139° Southeast  Level Estimated
02:36PM 14.0575 93.2864 139° Southeast  Level Estimated
02:37PM 13.9590 93.3737 139° Southeast  Level Estimated
02:38PM 13.8605 93.4609 139° Southeast  Level Estimated
02:39PM 13.7620 93.5481 139° Southeast  Level Estimated
02:40PM 13.6635 93.6351 139° Southeast  Level Estimated
02:41PM 13.5650 93.7222 139° Southeast  Level Estimated
02:42PM 13.4664 93.8091 139° Southeast  Level Estimated
02:43PM 13.3678 93.8959 139° Southeast  Level Estimated
02:44PM 13.2691 93.9827 139° Southeast  Level Estimated
02:45PM 13.1704 94.0695 139° Southeast  Level Estimated
02:46PM 13.0717 94.1561 139° Southeast  Level Estimated
02:47PM 12.9730 94.2427 139° Southeast  Level Estimated
02:48PM 12.8742 94.3292 140° Southeast  Level Estimated
02:49PM 12.7754 94.4156 140° Southeast  Level Estimated
02:50PM 12.6766 94.5020 140° Southeast  Level Estimated
02:51PM 12.5778 94.5883 140° Southeast  Level Estimated
02:52PM 12.4789 94.6746 140° Southeast  Level Estimated
02:53PM 12.3800 94.7607 140° Southeast  Level Estimated
02:54PM 12.2810 94.8468 140° Southeast  Level Estimated
02:55PM 12.1821 94.9329 140° Southeast  Level Estimated
02:56PM 12.0831 95.0189 140° Southeast  Level Estimated
02:57PM 11.9841 95.1048 140° Southeast  Level Estimated
02:58PM 11.8851 95.1906 140° Southeast  Level Estimated
02:59PM 11.7860 95.2764 140° Southeast  Level Estimated
03:00PM 11.6869 95.3621 140° Southeast  Level Estimated
03:01PM 11.5878 95.4478 140° Southeast  Level Estimated
03:02PM 11.4887 95.5334 140° Southeast  Level Estimated
03:03PM 11.3895 95.6190 140° Southeast  Level Estimated
03:04PM 11.2903 95.7045 140° Southeast  Level Estimated
03:05PM 11.1911 95.7899 140° Southeast  Level Estimated
03:06PM 11.0919 95.8753 140° Southeast  Level Estimated
03:06PM 11.4570 96.6180 140° Southeast 456 525 41,000  Level FlightAware
03:06PM 11.3770 96.6590 153° Southeast 457 526 41,000  Level FlightAware
03:07PM 10.9926 95.9606 140° Southeast  Level Estimated
03:07PM 11.3150 96.6900 154° Southeast 456 525 41,000  Level FlightAware
03:08PM 11.2040 96.7480 153° Southeast 457 526 41,000  Level FlightAware
03:09PM 11.0870 96.8070 154° Southeast 460 529 41,000  Level FlightAware
03:09PM 11.0420 96.8290 154° Southeast 458 527 41,000  Level FlightAware
03:10PM 10.9540 96.8740 153° Southeast 458 527 41,000  Level FlightAware
03:11PM 10.8760 96.9130 154° Southeast 456 525 41,000  Level FlightAware
03:11PM 10.7980 96.9530 153° Southeast 456 525 41,000  Level FlightAware
03:12PM 10.6860 97.0090 154° Southeast 460 529 41,000  Level FlightAware
03:13PM 10.6220 97.0410 154° Southeast 460 529 41,000  Level FlightAware
03:13PM 10.5520 97.0770 153° Southeast 462 532 41,000  Level FlightAware
03:14PM 10.4490 97.1290 154° Southeast 457 526 41,000  Level FlightAware
03:15PM 10.3660 97.1710 154° Southeast 456 525 41,000  Level FlightAware
03:16PM 10.3030 97.2030 153° Southeast 456 525 41,000  Level FlightAware
03:16PM 10.2420 97.2330 154° Southeast 457 526 41,000  Level FlightAware
03:17PM 10.1710 97.2690 153° Southeast 457 526 41,000  Level FlightAware
03:17PM 10.1140 97.2980 153° Southeast 457 526 41,000  Level FlightAware
03:18PM 10.0490 97.3300 154° Southeast 456 525 41,000  Level FlightAware
03:18PM 9.9880 97.3610 153° Southeast 457 526 41,000  Level FlightAware
03:19PM 9.8860 97.4130 153° Southeast 456 525 41,000  Level FlightAware
03:20PM 9.8120 97.4500 154° Southeast 457 526 41,000  Level FlightAware
03:21PM 9.7360 97.4890 153° Southeast 456 525 41,000  Level FlightAware
03:21PM 9.6660 97.5240 154° Southeast 451 519 41,000  Level FlightAware
03:22PM 9.6070 97.5540 153° Southeast 441 507 41,000  Level FlightAware
03:22PM 9.5410 97.5880 153° Southeast 439 505 41,000  Level FlightAware
03:23PM 9.4770 97.6200 154° Southeast 443 510 41,000  Level FlightAware
03:23PM 9.4230 97.6470 154° Southeast 443 510 41,000  Level FlightAware
03:24PM 9.3510 97.6840 153° Southeast 443 510 41,000  Level FlightAware
03:25PM 9.2740 97.7230 153° Southeast 444 511 41,000  Level FlightAware
03:25PM 9.2070 97.7560 154° Southeast 444 511 41,000  Level FlightAware
03:26PM 9.1370 97.7920 153° Southeast 446 513 41,000  Level FlightAware
03:27PM 9.0220 97.8500 154° Southeast 444 511 41,000  Level FlightAware
03:28PM 8.9090 97.9070 154° Southeast 446 513 41,000  Level FlightAware
03:29PM 8.8320 97.9460 153° Southeast 455 524 41,000  Level FlightAware
03:29PM 8.7730 97.9750 154° Southeast 457 526 41,000  Level FlightAware
03:30PM 8.7120 98.0060 153° Southeast 457 526 41,000  Level FlightAware
03:30PM 8.6460 98.0390 154° Southeast 456 525 41,000  Level FlightAware
03:31PM 8.5710 98.0770 153° Southeast 457 526 41,000  Level FlightAware
03:32PM 8.5100 98.1080 153° Southeast 455 524 41,000  Level FlightAware
03:32PM 8.4460 98.1400 154° Southeast 455 524 41,000  Level FlightAware
03:33PM 8.3960 98.1650 154° Southeast 457 526 41,000  Level FlightAware
03:33PM 8.3160 98.2050 154° Southeast 458 527 41,000  Level FlightAware
03:34PM 8.2480 98.2400 153° Southeast 458 527 41,000  Level FlightAware
03:35PM 8.1210 98.3070 152° Southeast 458 527 41,000  Level FlightAware
03:36PM 8.0400 98.3670 144° Southeast 460 529 41,000  Level FlightAware
03:36PM 7.9790 98.4180 140° Southeast 466 536 41,000  Level FlightAware
03:37PM 7.9220 98.4650 141° Southeast 466 536 41,000  Level FlightAware
03:37PM 7.8780 98.5020 140° Southeast 466 536 41,000  Level FlightAware
03:38PM 7.8200 98.5500 141° Southeast 464 534 41,000  Level FlightAware
03:39PM 7.7580 98.6000 141° Southeast 463 533 41,000  Level FlightAware
03:39PM 7.7050 98.6430 141° Southeast 464 534 41,000  Level FlightAware
03:40PM 7.6310 98.7040 141° Southeast 460 529 41,000  Level FlightAware
03:40PM 7.5780 98.7480 141° Southeast 461 531 41,000  Level FlightAware
03:41PM 7.5220 98.7940 141° Southeast 469 540 41,000  Level FlightAware
03:41PM 7.4780 98.8300 141° Southeast 470 541 41,000  Level FlightAware
03:42PM 7.3660 98.9120 144° Southeast 467 537 41,000  Level FlightAware
03:43PM 7.3220 98.9380 150° Southeast 466 536 41,000  Level FlightAware
03:43PM 7.2630 98.9730 150° Southeast 469 540 41,000  Level FlightAware
03:44PM 7.1480 99.0400 150° Southeast 470 541 41,000  Level FlightAware
03:45PM 7.0280 99.1110 150° Southeast 465 535 41,000  Level FlightAware
03:46PM 6.9670 99.1510 147° Southeast 463 533 41,000 60 Level FlightAware
03:47PM 6.9160 99.1870 145° Southeast 449 517 41,100  Climbing FlightAware
03:47PM 6.8560 99.2340 142° Southeast 448 516 41,000 -120 Descending FlightAware
03:48PM 6.8110 99.2710 141° Southeast 449 517 41,000  Level FlightAware
03:48PM 6.7420 99.3270 141° Southeast 456 525 41,000  Level FlightAware
03:49PM 6.6750 99.3800 142° Southeast 461 531 41,000  Level FlightAware
03:49PM 6.6320 99.4150 141° Southeast 460 529 41,000  Level FlightAware
03:50PM 6.5350 99.4920 142° Southeast 455 524 41,000  Level FlightAware
03:51PM 6.4860 99.5320 141° Southeast 456 525 41,000  Level FlightAware
03:51PM 6.4360 99.5720 142° Southeast 459 528 41,000  Level FlightAware
03:53PM 6.3210 99.6650 141° Southeast 461 531 41,000  Level FlightAware
03:53PM 6.2600 99.7110 143° Southeast 465 535 41,000  Level FlightAware
03:54PM 6.1910 99.7610 144° Southeast 462 532 41,000  Level FlightAware
03:54PM 6.1310 99.8050 144° Southeast 461 531 41,000  Level FlightAware
03:55PM 6.0520 99.8540 148° Southeast 460 529 41,000  Level FlightAware
03:56PM 5.9930 99.8880 150° Southeast 461 531 41,000  Level FlightAware
03:57PM 5.8820 99.9520 150° Southeast 462 532 41,000  Level FlightAware
03:57PM 5.8340 99.9790 151° Southeast 461 531 41,000  Level FlightAware
03:58PM 5.7330 100.0380 150° Southeast 453 521 41,000  Level FlightAware
03:58PM 5.6800 100.0680 151° Southeast 458 527 41,000  Level FlightAware
03:59PM 5.6230 100.1010 150° Southeast 457 526 41,000  Level FlightAware
04:00PM 5.5590 100.1380 150° Southeast 457 526 41,000  Level FlightAware
04:00PM 5.4940 100.1760 150° Southeast 461 531 41,000  Level FlightAware
04:01PM 5.3830 100.2400 150° Southeast 458 527 41,000  Level FlightAware
04:02PM 5.2540 100.3140 150° Southeast 460 529 41,000  Level FlightAware
04:03PM 5.2070 100.3410 150° Southeast 461 531 41,000  Level FlightAware
04:04PM 5.0900 100.4090 150° Southeast 463 533 41,000  Level FlightAware
04:04PM 5.0130 100.4530 150° Southeast 464 534 41,000  Level FlightAware
04:05PM 4.9380 100.4970 150° Southeast 464 534 41,000  Level FlightAware
04:06PM 4.8760 100.5320 151° Southeast 463 533 41,000  Level FlightAware
04:06PM 4.8280 100.5600 150° Southeast 461 531 41,000  Level FlightAware
04:07PM 4.7520 100.6030 151° Southeast 459 528 41,000  Level FlightAware
04:08PM 4.6463 100.6644 150° Southeast 461 531 41,000  Level FlightAware ADS-B (WMSA / SZB)
04:08PM 4.5829 100.7009 150° Southeast 461 531 41,000  Level FlightAware ADS-B (WMSA / SZB)
04:09PM 4.5268 100.7332 150° Southeast 458 527 41,000  Level FlightAware ADS-B (WMSA / SZB)
04:09PM 4.4708 100.7668 149° Southeast 456 525 41,000  Level FlightAware ADS-B (WMSA / SZB)
04:10PM 4.4044 100.8173 143° Southeast 457 526 41,000  Level FlightAware ADS-B (WMSA / SZB)
04:10PM 4.3543 100.8566 142° Southeast 454 522 41,000  Level FlightAware ADS-B (WMSA / SZB)
04:11PM 4.3043 100.8958 142° Southeast 454 522 41,000  Level FlightAware ADS-B (WMSA / SZB)
04:12PM 4.2417 100.9449 142° Southeast 454 522 41,000  Level FlightAware ADS-B (WMSA / SZB)
04:12PM 4.1707 101.0011 142° Southeast 455 524 41,000  Level FlightAware ADS-B (WMSA / SZB)
04:13PM 4.1059 101.0526 142° Southeast 457 526 41,000  Level FlightAware ADS-B (WMSA / SZB)
04:14PM 4.0466 101.0997 142° Southeast 460 529 41,000  Level FlightAware ADS-B (WMSA / SZB)
04:14PM 3.9783 101.1508 143° Southeast 461 531 41,000  Level FlightAware ADS-B (WMSA / SZB)
04:15PM 3.9110 101.2007 144° Southeast 462 532 41,000  Level FlightAware ADS-B (WMSA / SZB)
04:15PM 3.8586 101.2396 143° Southeast 463 533 41,000  Level FlightAware ADS-B (WMSA / SZB)
04:16PM 3.7905 101.2882 145° Southeast 463 533 41,000  Level FlightAware ADS-B (WMSA / SZB)
04:17PM 3.7342 101.3265 146° Southeast 462 532 41,000  Level FlightAware ADS-B (WMSA / SZB)
04:17PM 3.6808 101.3626 146° Southeast 464 534 41,000  Level FlightAware ADS-B (WMSA / SZB)
04:18PM 3.6276 101.3972 147° Southeast 466 536 41,000  Level FlightAware ADS-B (WMSA / SZB)
04:18PM 3.5717 101.4316 148° Southeast 466 536 41,000  Level FlightAware ADS-B (WMSA / SZB)
04:19PM 3.5141 101.4672 148° Southeast 464 534 41,000  Level FlightAware ADS-B (WMSA / SZB)
04:19PM 3.4514 101.5060 148° Southeast 465 535 41,000  Level FlightAware ADS-B (WMSA / SZB)
04:20PM 3.3783 101.5517 148° Southeast 464 534 41,000  Level FlightAware ADS-B (WMSA / SZB)
04:20PM 3.3227 101.5871 148° Southeast 467 537 41,000  Level FlightAware ADS-B (WMSA / SZB)
04:21PM 3.2499 101.6333 148° Southeast 467 537 41,000  Level FlightAware ADS-B (WMSA / SZB)
04:21PM 3.1953 101.6679 148° Southeast 468 539 41,000  Level FlightAware ADS-B (WMSA / SZB)
04:22PM 3.1226 101.7138 148° Southeast 469 540 41,000  Level FlightAware ADS-B (WMSA / SZB)
04:23PM 3.0683 101.7482 148° Southeast 468 539 41,000  Level FlightAware ADS-B (WMSA / SZB)
04:23PM 2.9978 101.7928 148° Southeast 468 539 41,000  Level FlightAware ADS-B (WMSA / SZB)
04:24PM 2.9382 101.8305 148° Southeast 467 537 41,000  Level FlightAware ADS-B (WMSA / SZB)
04:24PM 2.8760 101.8699 148° Southeast 468 539 41,000  Level FlightAware ADS-B (WMSA / SZB)
04:25PM 2.7920 101.9230 148° Southeast 467 537 41,000  Level FlightAware
04:26PM 2.7040 101.9790 148° Southeast 467 537 41,000  Level FlightAware
04:27PM 2.6580 102.0070 149° Southeast 465 535 41,000  Level FlightAware
04:28PM 2.5100 102.1010 148° Southeast 467 537 41,000  Level FlightAware
04:28PM 2.4470 102.1470 144° Southeast 467 537 41,000  Level FlightAware
04:29PM 2.4810 102.1200 322° Northwest 467 537 41,000  Level FlightAware
04:30PM 2.3610 102.2900 125° Southeast 467 537 41,000 -600 Level FlightAware
04:31PM 2.2960 102.4020 120° Southeast 464 534 39,900 -1,200 Descending FlightAware
04:31PM 2.2450 102.4890 120° Southeast 465 535 39,000 -1,320 Descending FlightAware
04:32PM 2.2120 102.5470 120° Southeast 458 527 38,300 -1,680 Descending FlightAware
04:33PM 2.1720 102.6150 120° Southeast 468 539 37,100 -840 Descending FlightAware
04:34PM 2.1720 102.6150 120° Southeast 459 528 37,000 -60 Descending FlightAware
04:34PM 2.1280 102.6910 120° Southeast 459 528 37,000 -1,140 Level FlightAware
04:35PM 2.0090 102.9240 117° Southeast 461 531 35,000 -960 Descending FlightAware
04:36PM 1.9590 103.0560 111° Southeast 430 495 35,000 -960 Level FlightAware
04:37PM 1.9210 103.1560 111° Southeast 443 510 33,100 -1,140 Descending FlightAware
04:38PM 1.8790 103.2600 112° Southeast 415 478 33,000 -120 Descending FlightAware
04:39PM 1.8330 103.3040 136° Southeast 419 482 33,000  Level FlightAware
04:39PM 1.8040 103.3500 122° Southeast 403 464 33,000  Level FlightAware
04:40PM 1.7980 103.3930 98° East 399 459 33,000  Level FlightAware
04:40PM 1.7980 103.4290 90° East 407 468 33,000 -480 Level FlightAware
04:41PM 1.7970 103.5370 91° East 408 470 32,400 -1,560 Descending FlightAware
04:42PM 1.7960 103.6420 91° East 414 476 30,100 -3,000 Descending FlightAware
04:43PM 1.7920 103.7450 92° East 440 506 27,000 -3,060 Descending FlightAware
04:44PM 1.7910 103.8500 91° East 434 499 24,800 -2,640 Descending FlightAware
04:44PM 1.7860 103.9060 95° East 433 498 23,500 -1,680 Descending FlightAware
04:45PM 1.7430 103.9720 123° Southeast 411 473 22,900 -960 Descending FlightAware
04:45PM 1.6950 104.0000 150° Southeast 382 440 22,400 -1,500 Descending FlightAware
04:46PM 1.6300 104.0330 153° Southeast 349 402 21,100 -2,160 Descending FlightAware
04:47PM 1.5570 104.0720 152° Southeast 335 386 19,000 -2,520 Descending FlightAware
04:48PM 1.4870 104.1100 152° Southeast 326 375 16,800 -2,460 Descending FlightAware
04:48PM 1.4560 104.1270 151° Southeast 320 368 15,900 -1,500 Descending FlightAware
04:49PM 1.3900 104.1620 152° Southeast 283 326 14,900 -1,500 Descending FlightAware
04:50PM 1.3250 104.1860 160° South 274 315 13,300 -1,680 Descending FlightAware
04:50PM 1.2960 104.1840 184° South 262 302 12,700 -1,500 Descending FlightAware
04:51PM 1.2230 104.1650 195° South 269 310 11,200 -1,380 Descending FlightAware
04:52PM 1.1960 104.1430 219° Southwest 266 306 10,700 -1,020 Descending FlightAware
04:52PM 1.1620 104.1140 220° Southwest 262 302 10,100 -1,080 Descending FlightAware
04:53PM 1.1380 104.0930 221° Southwest 257 296 9,600 -840 Descending FlightAware
04:53PM 1.1120 104.0640 228° Southwest 247 284 9,300 -660 Descending FlightAware
04:54PM 1.0940 104.0420 231° Southwest 236 272 9,000 -840 Descending FlightAware
04:54PM 1.0860 104.0070 257° West 241 277 8,500 -1,020 Descending FlightAware
04:55PM 1.0820 103.9800 262° West 244 281 8,100 -900 Descending FlightAware
04:55PM 1.0780 103.9540 261° West 232 267 7,800 -1,260 Descending FlightAware
04:56PM 1.0880 103.9240 288° West 229 264 7,000 -2,220 Descending FlightAware
04:56PM 1.1140 103.9060 325° Northwest 232 267 5,600 -2,580 Descending FlightAware
04:57PM 1.1360 103.9030 352° North 230 265 4,800 -2,040 Descending FlightAware
04:57PM 1.1600 103.9000 353° North 221 254 4,100 -1,500 Descending FlightAware
04:58PM 1.1940 103.9120 19° North 189 217 3,300 -1,200 Descending FlightAware
04:58PM 1.2180 103.9220 23° Northeast 178 205 2,800 -960 Descending FlightAware
04:58PM 1.2320 103.9280 23° Northeast 171 197 2,500 -900 Descending FlightAware
04:59PM 1.2530 103.9370 23° Northeast 155 178 2,100 -780 Descending FlightAware
04:59PM 1.2690 103.9430 21° North 147 169 1,800 -780 Descending FlightAware
05:00PM 1.2830 103.9500 27° Northeast 144 166 1,500 -780 Descending FlightAware
05:00PM 1.3080 103.9600 22° Northeast 138 159 1,000 -720 Descending FlightAware
05:01PM 1.3300 103.9690 22° Northeast 135 155 600 -660 Descending FlightAware
05:01PM 1.3470 103.9770 25° Northeast 137 158 300 -600 Descending FlightAware
05:02PM 1.3610 103.9830 23° Northeast 100 115 -720 Descending FlightAware
05:02PM 1.3710 103.9860 17° North 100 115  Level FlightAware